Hemen zaude: Hasiera Ezagutu Memoria historikoaren euskal interpretazio zentroa: Intxortako borrokaldiak Ibilbide tematikoaren gps-tracka
Dokumentu Akzioak

Ibilbide tematikoaren gps-tracka

Click here to get the file

Tamaina 151.6 kB - Fitxategi-mota text/xml

Fitxategien edukiak

<?xml version="1.0" encoding="UTF-8"?><gpx xmlns:xsi="http://www.w3.org/2001/XMLSchema-instance" xmlns:xsd="http://www.w3.org/2001/XMLSchema" version="1.1" creator="rharham" xmlns="http://www.topografix.com/GPX/1/1"><trk><name>rharham_05.05.2012</name><trkseg><trkpt lat="43.1371036242669" lon="-2.4860363262329"><ele>517.699999975931</ele><time>2012-05-05T09:00:53Z</time><speed>0.0</speed></trkpt><trkpt lat="43.1371036242669" lon="-2.4860363262329"><ele>517.699999975931</ele><time>2012-05-05T09:00:55Z</time><speed>0.0</speed></trkpt><trkpt lat="43.1370595736687" lon="-2.48608368425566"><ele>517.00000002393</ele><time>2012-05-05T09:01:11Z</time><speed>1.8</speed></trkpt><trkpt lat="43.1370124005221" lon="-2.486081846001"><ele>516.100000741876</ele><time>2012-05-05T09:01:15Z</time><speed>1.3025291</speed></trkpt><trkpt lat="43.1369748229438" lon="-2.48613490389359"><ele>514.700000419936</ele><time>2012-05-05T09:01:21Z</time><speed>1.210576</speed></trkpt><trkpt lat="43.1369367279346" lon="-2.48619047880687"><ele>515.400000182828</ele><time>2012-05-05T09:01:26Z</time><speed>1.3360121</speed></trkpt><trkpt lat="43.1369005736742" lon="-2.48623783098364"><ele>517.099999489026</ele><time>2012-05-05T09:01:30Z</time><speed>1.7</speed></trkpt><trkpt lat="43.1368674975575" lon="-2.48629126436772"><ele>514.800000554858</ele><time>2012-05-05T09:01:34Z</time><speed>1.3815637</speed></trkpt><trkpt lat="43.1368256428809" lon="-2.48634139319904"><ele>514.500000531138</ele><time>2012-05-05T09:01:39Z</time><speed>1.386486</speed></trkpt><trkpt lat="43.1367873451221" lon="-2.48638172861856"><ele>513.200002279295</ele><time>2012-05-05T09:01:43Z</time><speed>1.4328556</speed></trkpt><trkpt lat="43.1367521679452" lon="-2.4864243084374"><ele>514.99999202885</ele><time>2012-05-05T09:01:48Z</time><speed>1.3652793</speed></trkpt><trkpt lat="43.1367471449354" lon="-2.4864878630544"><ele>514.699995727304</ele><time>2012-05-05T09:02:22Z</time><speed>0.4</speed></trkpt><trkpt lat="43.1367291484008" lon="-2.48656374020387"><ele>512.400000030224</ele><time>2012-05-05T09:02:29Z</time><speed>1.8068181</speed></trkpt><trkpt lat="43.1367044792291" lon="-2.48661986534591"><ele>512.199999931032</ele><time>2012-05-05T09:02:32Z</time><speed>1.7377598</speed></trkpt><trkpt lat="43.1366848548215" lon="-2.48669028438747"><ele>513.899999191824</ele><time>2012-05-05T09:02:35Z</time><speed>1.6480784</speed></trkpt><trkpt lat="43.1366828169411" lon="-2.48676224669718"><ele>512.299997476252</ele><time>2012-05-05T09:02:38Z</time><speed>2.1</speed></trkpt><trkpt lat="43.1366871545534" lon="-2.48682663544045"><ele>511.899998293915</ele><time>2012-05-05T09:02:41Z</time><speed>1.628248</speed></trkpt><trkpt lat="43.1367073311879" lon="-2.48688430525244"><ele>512.299997530738</ele><time>2012-05-05T09:02:44Z</time><speed>1.624726</speed></trkpt><trkpt lat="43.1366888174563" lon="-2.48695326153549"><ele>511.799997592551</ele><time>2012-05-05T09:02:47Z</time><speed>1.6392771</speed></trkpt><trkpt lat="43.1366677406685" lon="-2.48702538970289"><ele>512.499996028992</ele><time>2012-05-05T09:02:50Z</time><speed>1.7687466</speed></trkpt><trkpt lat="43.1366449698363" lon="-2.48709668218999"><ele>513.399992614963</ele><time>2012-05-05T09:02:53Z</time><speed>1.629615</speed></trkpt><trkpt lat="43.1366248993417" lon="-2.48716065283572"><ele>514.499996482458</ele><time>2012-05-05T09:02:56Z</time><speed>1.6466115</speed></trkpt><trkpt lat="43.1366017918992" lon="-2.48723083476797"><ele>514.800001040499</ele><time>2012-05-05T09:03:00Z</time><speed>1.5077779</speed></trkpt><trkpt lat="43.1365934497809" lon="-2.48729229328033"><ele>516.900001132621</ele><time>2012-05-05T09:03:04Z</time><speed>1.3830136</speed></trkpt><trkpt lat="43.1365866818243" lon="-2.48736560421629"><ele>519.499998066484</ele><time>2012-05-05T09:03:08Z</time><speed>1.4420214</speed></trkpt><trkpt lat="43.1365751601304" lon="-2.48743344535489"><ele>519.000001020547</ele><time>2012-05-05T09:03:12Z</time><speed>1.4126482</speed></trkpt><trkpt lat="43.1365566315111" lon="-2.4875035721012"><ele>518.400002143409</ele><time>2012-05-05T09:03:16Z</time><speed>1.801491</speed></trkpt><trkpt lat="43.1365679263492" lon="-2.48757612686158"><ele>518.100003999976</ele><time>2012-05-05T09:03:21Z</time><speed>1.3382415</speed></trkpt><trkpt lat="43.1365995181049" lon="-2.48763752743542"><ele>520.999998863644</ele><time>2012-05-05T09:03:26Z</time><speed>1.2838981</speed></trkpt><trkpt lat="43.1366217308585" lon="-2.48770409336345"><ele>521.399997218743</ele><time>2012-05-05T09:03:31Z</time><speed>1.2654552</speed></trkpt><trkpt lat="43.1365931436048" lon="-2.48775795513695"><ele>521.400007237297</ele><time>2012-05-05T09:03:35Z</time><speed>1.4141725</speed></trkpt><trkpt lat="43.1365452565867" lon="-2.48776451340439"><ele>521.300024001633</ele><time>2012-05-05T09:03:39Z</time><speed>1.4222018</speed></trkpt><trkpt lat="43.1364920430999" lon="-2.4877504658311"><ele>520.800005004995</ele><time>2012-05-05T09:03:42Z</time><speed>1.4401728</speed></trkpt><trkpt lat="43.1364367421009" lon="-2.48775880614676"><ele>521.899997332445</ele><time>2012-05-05T09:03:46Z</time><speed>1.4041473</speed></trkpt><trkpt lat="43.1364609287163" lon="-2.48781164188742"><ele>524.399953964889</ele><time>2012-05-05T09:04:15Z</time><speed>1.3757809</speed></trkpt><trkpt lat="43.1364096646445" lon="-2.48782367413257"><ele>523.199909082586</ele><time>2012-05-05T09:04:19Z</time><speed>2.4</speed></trkpt><trkpt lat="43.136320586808" lon="-2.48785526681027"><ele>522.599868912424</ele><time>2012-05-05T09:04:21Z</time><speed>2.6000001</speed></trkpt><trkpt lat="43.1362745852963" lon="-2.4878786447144"><ele>522.999856194079</ele><time>2012-05-05T09:04:22Z</time><speed>2.6000001</speed></trkpt><trkpt lat="43.1362299773167" lon="-2.48790068475685"><ele>522.999853086602</ele><time>2012-05-05T09:04:23Z</time><speed>2.5</speed></trkpt><trkpt lat="43.136186841436" lon="-2.48792162869942"><ele>522.799840791616</ele><time>2012-05-05T09:04:24Z</time><speed>2.4</speed></trkpt><trkpt lat="43.1361086099103" lon="-2.48796907041807"><ele>522.49983029844</ele><time>2012-05-05T09:04:26Z</time><speed>2.4</speed></trkpt><trkpt lat="43.1360357379632" lon="-2.48801234181158"><ele>522.399839860544</ele><time>2012-05-05T09:04:28Z</time><speed>2.1</speed></trkpt><trkpt lat="43.1359911369276" lon="-2.48804531934363"><ele>522.799824860222</ele><time>2012-05-05T09:04:30Z</time><speed>1.7</speed></trkpt><trkpt lat="43.1359352414793" lon="-2.4880891093322"><ele>523.29985989871</ele><time>2012-05-05T09:04:32Z</time><speed>1.6</speed></trkpt><trkpt lat="43.1358921432556" lon="-2.48813270148127"><ele>523.799878626921</ele><time>2012-05-05T09:04:34Z</time><speed>1.4019278</speed></trkpt><trkpt lat="43.1358457993952" lon="-2.488192207439"><ele>523.999905596266</ele><time>2012-05-05T09:04:37Z</time><speed>1.3817315</speed></trkpt><trkpt lat="43.1358169118825" lon="-2.48824364397058"><ele>523.799983911971</ele><time>2012-05-05T09:04:40Z</time><speed>1.4021595</speed></trkpt><trkpt lat="43.1357808401114" lon="-2.48828987280351"><ele>523.700031288212</ele><time>2012-05-05T09:04:45Z</time><speed>1.4222602</speed></trkpt><trkpt lat="43.1357439643926" lon="-2.48832567986565"><ele>524.600006315875</ele><time>2012-05-05T09:04:49Z</time><speed>1.4321909</speed></trkpt><trkpt lat="43.1357075981719" lon="-2.48836593771232"><ele>524.800023394572</ele><time>2012-05-05T09:04:53Z</time><speed>1.4202819</speed></trkpt><trkpt lat="43.1356667803335" lon="-2.48841120063334"><ele>525.800035238248</ele><time>2012-05-05T09:04:58Z</time><speed>1.3089985</speed></trkpt><trkpt lat="43.135686238067" lon="-2.48848466839957"><ele>527.700026367715</ele><time>2012-05-05T09:05:02Z</time><speed>1.3783153</speed></trkpt><trkpt lat="43.1356719211137" lon="-2.4885520829225"><ele>530.299961201377</ele><time>2012-05-05T09:05:06Z</time><speed>1.6</speed></trkpt><trkpt lat="43.1356336827297" lon="-2.48859909284548"><ele>531.299870280602</ele><time>2012-05-05T09:05:09Z</time><speed>1.9</speed></trkpt><trkpt lat="43.1355933914872" lon="-2.4886788411417"><ele>531.799770544345</ele><time>2012-05-05T09:05:12Z</time><speed>2.8000002</speed></trkpt><trkpt lat="43.1355706948873" lon="-2.48874525291377"><ele>531.89981213569</ele><time>2012-05-05T09:05:14Z</time><speed>1.8</speed></trkpt><trkpt lat="43.1355350822557" lon="-2.48880273554581"><ele>533.899862185942</ele><time>2012-05-05T09:05:17Z</time><speed>1.8</speed></trkpt><trkpt lat="43.1354853682502" lon="-2.48883606084171"><ele>534.799938194757</ele><time>2012-05-05T09:05:21Z</time><speed>1.3031572</speed></trkpt><trkpt lat="43.1354339843827" lon="-2.48884291572941"><ele>530.700039321487</ele><time>2012-05-05T09:05:25Z</time><speed>1.9</speed></trkpt><trkpt lat="43.1353695265732" lon="-2.48881356443008"><ele>529.10002488848</ele><time>2012-05-05T09:05:28Z</time><speed>1.6</speed></trkpt><trkpt lat="43.1353102804939" lon="-2.48879451971799"><ele>530.000010569307</ele><time>2012-05-05T09:05:31Z</time><speed>1.2116165</speed></trkpt><trkpt lat="43.1352545127006" lon="-2.48877600353688"><ele>529.600015027008</ele><time>2012-05-05T09:05:34Z</time><speed>1.2533652</speed></trkpt><trkpt lat="43.1352076428116" lon="-2.48875750001279"><ele>529.000062232063</ele><time>2012-05-05T09:05:37Z</time><speed>1.2899643</speed></trkpt><trkpt lat="43.1351591970821" lon="-2.48874420881464"><ele>533.60002570386</ele><time>2012-05-05T09:05:40Z</time><speed>1.6</speed></trkpt><trkpt lat="43.135112224224" lon="-2.48873336886618"><ele>529.000040709939</ele><time>2012-05-05T09:05:44Z</time><speed>1.1889526</speed></trkpt><trkpt lat="43.135072097361" lon="-2.48869563490721"><ele>526.500023854392</ele><time>2012-05-05T09:05:48Z</time><speed>1.1431662</speed></trkpt><trkpt lat="43.1350270446462" lon="-2.48865823034312"><ele>526.100028951286</ele><time>2012-05-05T09:05:53Z</time><speed>1.1826191</speed></trkpt><trkpt lat="43.1350202654641" lon="-2.48864706727722"><ele>525.400021102937</ele><time>2012-05-05T09:05:54Z</time><speed>1.2005904</speed></trkpt><trkpt lat="43.1349940776737" lon="-2.48859633224075"><ele>521.400016061918</ele><time>2012-05-05T09:05:58Z</time><speed>1.249789</speed></trkpt><trkpt lat="43.1349507265285" lon="-2.48857111642245"><ele>526.200000069164</ele><time>2012-05-05T09:06:03Z</time><speed>1.2395531</speed></trkpt><trkpt lat="43.134894946668" lon="-2.48857934184886"><ele>526.499993026913</ele><time>2012-05-05T09:06:08Z</time><speed>1.1566641</speed></trkpt><trkpt lat="43.1348400022975" lon="-2.48857749683204"><ele>528.599995616169</ele><time>2012-05-05T09:06:13Z</time><speed>1.1898558</speed></trkpt><trkpt lat="43.1347889356168" lon="-2.48856175365897"><ele>529.399999750028</ele><time>2012-05-05T09:06:18Z</time><speed>1.2630146</speed></trkpt><trkpt lat="43.1347465523959" lon="-2.48853987221053"><ele>530.399996567393</ele><time>2012-05-05T09:06:22Z</time><speed>1.2796494</speed></trkpt><trkpt lat="43.1346971250691" lon="-2.48850560553612"><ele>531.800002487731</ele><time>2012-05-05T09:06:27Z</time><speed>1.2841206</speed></trkpt><trkpt lat="43.1346479593696" lon="-2.48847212976698"><ele>532.300007193978</ele><time>2012-05-05T09:06:32Z</time><speed>1.3706127</speed></trkpt><trkpt lat="43.1345945536915" lon="-2.48845499569089"><ele>532.899996733272</ele><time>2012-05-05T09:06:37Z</time><speed>1.2909217</speed></trkpt><trkpt lat="43.1345457608885" lon="-2.48843450205828"><ele>531.100002448449</ele><time>2012-05-05T09:06:41Z</time><speed>1.2450771</speed></trkpt><trkpt lat="43.1344939194465" lon="-2.48842863596474"><ele>532.300003870189</ele><time>2012-05-05T09:06:46Z</time><speed>1.2095208</speed></trkpt><trkpt lat="43.134447744934" lon="-2.4884210450932"><ele>534.299999679</ele><time>2012-05-05T09:06:51Z</time><speed>1.1003867</speed></trkpt><trkpt lat="43.1344201730208" lon="-2.4884201835192"><ele>534.400006899002</ele><time>2012-05-05T09:06:54Z</time><speed>1.1926558</speed></trkpt><trkpt lat="43.134374091077" lon="-2.48843099835287"><ele>534.300004063594</ele><time>2012-05-05T09:06:59Z</time><speed>1.2741383</speed></trkpt><trkpt lat="43.1343267510569" lon="-2.4884435641228"><ele>535.400005390728</ele><time>2012-05-05T09:07:04Z</time><speed>1.2282282</speed></trkpt><trkpt lat="43.1342751253179" lon="-2.48845375347757"><ele>535.300001756957</ele><time>2012-05-05T09:07:09Z</time><speed>1.1881685</speed></trkpt><trkpt lat="43.1342237560019" lon="-2.48846998825284"><ele>535.400004883639</ele><time>2012-05-05T09:07:14Z</time><speed>1.286635</speed></trkpt><trkpt lat="43.134171297086" lon="-2.48848686936125"><ele>536.200004708624</ele><time>2012-05-05T09:07:19Z</time><speed>1.255836</speed></trkpt><trkpt lat="43.1341212918441" lon="-2.48851239125318"><ele>535.799995109678</ele><time>2012-05-05T09:07:24Z</time><speed>1.2530217</speed></trkpt><trkpt lat="43.1340716108109" lon="-2.48853402005861"><ele>534.099999591148</ele><time>2012-05-05T09:07:29Z</time><speed>1.2496594</speed></trkpt><trkpt lat="43.1340163254392" lon="-2.48855255270452"><ele>534.099995825293</ele><time>2012-05-05T09:07:34Z</time><speed>1.2983412</speed></trkpt><trkpt lat="43.1339614088808" lon="-2.48856085728016"><ele>535.500008237814</ele><time>2012-05-05T09:07:39Z</time><speed>1.2610563</speed></trkpt><trkpt lat="43.1339107865801" lon="-2.4885863719877"><ele>535.79999592279</ele><time>2012-05-05T09:07:44Z</time><speed>1.2646023</speed></trkpt><trkpt lat="43.1338607480206" lon="-2.48859371228343"><ele>535.599988738726</ele><time>2012-05-05T09:07:48Z</time><speed>1.5</speed></trkpt><trkpt lat="43.1338101039279" lon="-2.48860230963561"><ele>536.499992462899</ele><time>2012-05-05T09:07:52Z</time><speed>1.2670976</speed></trkpt><trkpt lat="43.1337862387667" lon="-2.48860669732221"><ele>536.599995716844</ele><time>2012-05-05T09:07:54Z</time><speed>1.2374282</speed></trkpt><trkpt lat="43.1337363166875" lon="-2.48860752350214"><ele>536.799984545386</ele><time>2012-05-05T09:07:58Z</time><speed>1.2613472</speed></trkpt><trkpt lat="43.1336823457968" lon="-2.48860808057355"><ele>536.800022083857</ele><time>2012-05-05T09:08:03Z</time><speed>1.3237649</speed></trkpt><trkpt lat="43.1336271567839" lon="-2.48861532633101"><ele>536.900012272426</ele><time>2012-05-05T09:08:08Z</time><speed>1.3456621</speed></trkpt><trkpt lat="43.133577050344" lon="-2.48861474078238"><ele>535.700012174148</ele><time>2012-05-05T09:08:13Z</time><speed>1.2959038</speed></trkpt><trkpt lat="43.1335244353373" lon="-2.48861505145026"><ele>536.600003421935</ele><time>2012-05-05T09:08:18Z</time><speed>1.3311106</speed></trkpt><trkpt lat="43.1334793803628" lon="-2.48861930051473"><ele>536.90000211215</ele><time>2012-05-05T09:08:22Z</time><speed>1.2903931</speed></trkpt><trkpt lat="43.1334290938725" lon="-2.48863842312023"><ele>537.500008287768</ele><time>2012-05-05T09:08:27Z</time><speed>1.2822397</speed></trkpt><trkpt lat="43.1333822022769" lon="-2.4886702892251"><ele>537.700003080797</ele><time>2012-05-05T09:08:32Z</time><speed>1.2247591</speed></trkpt><trkpt lat="43.1333363146223" lon="-2.48867103391569"><ele>540.200001183241</ele><time>2012-05-05T09:08:36Z</time><speed>1.2432127</speed></trkpt><trkpt lat="43.1332888613732" lon="-2.48865871003745"><ele>539.800005362542</ele><time>2012-05-05T09:08:40Z</time><speed>1.2279662</speed></trkpt><trkpt lat="43.1332383917705" lon="-2.48865303088008"><ele>540.900010607235</ele><time>2012-05-05T09:08:45Z</time><speed>1.1829853</speed></trkpt><trkpt lat="43.1331839798964" lon="-2.48864704539106"><ele>541.700000922924</ele><time>2012-05-05T09:08:50Z</time><speed>1.2170293</speed></trkpt><trkpt lat="43.1331348602622" lon="-2.48863393179971"><ele>541.299982598702</ele><time>2012-05-05T09:08:54Z</time><speed>1.2075058</speed></trkpt><trkpt lat="43.1330830655195" lon="-2.48861318928431"><ele>541.599981201165</ele><time>2012-05-05T09:08:58Z</time><speed>1.1921476</speed></trkpt><trkpt lat="43.1330380286617" lon="-2.48859282240155"><ele>542.799992359511</ele><time>2012-05-05T09:09:02Z</time><speed>1.2042879</speed></trkpt><trkpt lat="43.1329908439108" lon="-2.48859705663052"><ele>543.099949989007</ele><time>2012-05-05T09:09:06Z</time><speed>1.2339994</speed></trkpt><trkpt lat="43.1329371277262" lon="-2.48858843465057"><ele>541.600010290544</ele><time>2012-05-05T09:09:11Z</time><speed>1.1933469</speed></trkpt><trkpt lat="43.1328908429127" lon="-2.48855489971932"><ele>545.9000120923</ele><time>2012-05-05T09:09:17Z</time><speed>1.1821755</speed></trkpt><trkpt lat="43.1328467865457" lon="-2.4885183040263"><ele>545.600008717516</ele><time>2012-05-05T09:09:22Z</time><speed>1.2469649</speed></trkpt><trkpt lat="43.1328054038455" lon="-2.48846860224431"><ele>545.000011975418</ele><time>2012-05-05T09:09:27Z</time><speed>1.3809655</speed></trkpt><trkpt lat="43.1327627492741" lon="-2.48842337668998"><ele>542.20000599627</ele><time>2012-05-05T09:09:32Z</time><speed>1.2991543</speed></trkpt><trkpt lat="43.1327192483545" lon="-2.48838293263351"><ele>542.600007213079</ele><time>2012-05-05T09:09:37Z</time><speed>1.3601606</speed></trkpt><trkpt lat="43.1326739498468" lon="-2.48834413015475"><ele>541.900004020038</ele><time>2012-05-05T09:09:42Z</time><speed>1.3145179</speed></trkpt><trkpt lat="43.1326306748424" lon="-2.48830254835063"><ele>541.600004110403</ele><time>2012-05-05T09:09:46Z</time><speed>1.6</speed></trkpt><trkpt lat="43.1325816522517" lon="-2.48825357117948"><ele>540.599997628152</ele><time>2012-05-05T09:09:50Z</time><speed>1.6</speed></trkpt><trkpt lat="43.1325348555237" lon="-2.48820979640658"><ele>540.500001607026</ele><time>2012-05-05T09:09:54Z</time><speed>1.4381201</speed></trkpt><trkpt lat="43.13249177481" lon="-2.48816612478536"><ele>540.80000592327</ele><time>2012-05-05T09:09:58Z</time><speed>1.4297667</speed></trkpt><trkpt lat="43.1324488642329" lon="-2.48812950356329"><ele>540.400004755422</ele><time>2012-05-05T09:10:02Z</time><speed>1.4596018</speed></trkpt><trkpt lat="43.1324036664406" lon="-2.48808468923632"><ele>541.299997571286</ele><time>2012-05-05T09:10:06Z</time><speed>1.6</speed></trkpt><trkpt lat="43.1323584082023" lon="-2.48804463699788"><ele>541.700016940169</ele><time>2012-05-05T09:10:10Z</time><speed>1.408499</speed></trkpt><trkpt lat="43.1323120218822" lon="-2.4880181653913"><ele>539.900016288638</ele><time>2012-05-05T09:10:15Z</time><speed>1.439944</speed></trkpt><trkpt lat="43.1322782659998" lon="-2.48796562996686"><ele>538.900011888179</ele><time>2012-05-05T09:10:19Z</time><speed>1.4240189</speed></trkpt><trkpt lat="43.1322362088906" lon="-2.4879308709374"><ele>539.300010310572</ele><time>2012-05-05T09:10:23Z</time><speed>1.457251</speed></trkpt><trkpt lat="43.1321910155014" lon="-2.48790999269933"><ele>538.800013214348</ele><time>2012-05-05T09:10:27Z</time><speed>1.3844081</speed></trkpt><trkpt lat="43.1321477060268" lon="-2.48788677736966"><ele>537.000036562941</ele><time>2012-05-05T09:10:32Z</time><speed>1.265622</speed></trkpt><trkpt lat="43.1321042719384" lon="-2.48791923775403"><ele>535.09996454319</ele><time>2012-05-05T09:10:47Z</time><speed>1.4638308</speed></trkpt><trkpt lat="43.1320570250833" lon="-2.48790888585744"><ele>533.900000520991</ele><time>2012-05-05T09:10:51Z</time><speed>1.4481744</speed></trkpt><trkpt lat="43.1320225954328" lon="-2.48791001392066"><ele>532.599997433444</ele><time>2012-05-05T09:10:54Z</time><speed>1.3784449</speed></trkpt><trkpt lat="43.131973394979" lon="-2.48790975502069"><ele>533.099994062311</ele><time>2012-05-05T09:10:58Z</time><speed>1.4465747</speed></trkpt><trkpt lat="43.1319239146192" lon="-2.48789676033792"><ele>532.299981911946</ele><time>2012-05-05T09:11:02Z</time><speed>1.3919599</speed></trkpt><trkpt lat="43.1318734314673" lon="-2.48788102562375"><ele>530.900002498391</ele><time>2012-05-05T09:11:06Z</time><speed>1.4538182</speed></trkpt><trkpt lat="43.1318263306503" lon="-2.48787525035693"><ele>529.399998813684</ele><time>2012-05-05T09:11:10Z</time><speed>1.4129204</speed></trkpt><trkpt lat="43.1317762551107" lon="-2.4878592076134"><ele>527.199994519409</ele><time>2012-05-05T09:11:14Z</time><speed>1.3686706</speed></trkpt><trkpt lat="43.1317299252254" lon="-2.48785108896053"><ele>527.50001674694</ele><time>2012-05-05T09:11:18Z</time><speed>1.3333073</speed></trkpt><trkpt lat="43.1316784485292" lon="-2.4878338626276"><ele>526.600022131346</ele><time>2012-05-05T09:11:23Z</time><speed>1.3920935</speed></trkpt><trkpt lat="43.1316335162583" lon="-2.48780925904934"><ele>526.599998573361</ele><time>2012-05-05T09:11:27Z</time><speed>1.6</speed></trkpt><trkpt lat="43.1315870961034" lon="-2.48781852641719"><ele>526.80001206011</ele><time>2012-05-05T09:11:31Z</time><speed>1.3910122</speed></trkpt><trkpt lat="43.1315379814058" lon="-2.48778270867912"><ele>524.70001381388</ele><time>2012-05-05T09:11:36Z</time><speed>1.416466</speed></trkpt><trkpt lat="43.1314883096073" lon="-2.48775530437162"><ele>523.300019033878</ele><time>2012-05-05T09:11:41Z</time><speed>1.3664483</speed></trkpt><trkpt lat="43.1314457904759" lon="-2.48772978419288"><ele>523.39999243071</ele><time>2012-05-05T09:11:45Z</time><speed>1.3639996</speed></trkpt><trkpt lat="43.1313889419405" lon="-2.48770468096054"><ele>521.499968750842</ele><time>2012-05-05T09:11:49Z</time><speed>1.4580168</speed></trkpt><trkpt lat="43.1313405486204" lon="-2.48769597021135"><ele>520.500002053998</ele><time>2012-05-05T09:11:53Z</time><speed>1.4044814</speed></trkpt><trkpt lat="43.1313305618023" lon="-2.48769463581771"><ele>520.800015218815</ele><time>2012-05-05T09:11:54Z</time><speed>1.4139749</speed></trkpt><trkpt lat="43.1312793537828" lon="-2.48769437555603"><ele>520.499975884282</ele><time>2012-05-05T09:11:58Z</time><speed>1.4278977</speed></trkpt><trkpt lat="43.1312420142013" lon="-2.48773332725603"><ele>523.000009841061</ele><time>2012-05-05T09:12:02Z</time><speed>1.320121</speed></trkpt><trkpt lat="43.1312137946166" lon="-2.48778476636691"><ele>523.5000205036</ele><time>2012-05-05T09:12:06Z</time><speed>1.4238888</speed></trkpt><trkpt lat="43.1311655413713" lon="-2.48780000961881"><ele>523.70000701563</ele><time>2012-05-05T09:12:10Z</time><speed>1.4181592</speed></trkpt><trkpt lat="43.1311109987526" lon="-2.48779214289814"><ele>524.199966250896</ele><time>2012-05-05T09:12:14Z</time><speed>1.42821</speed></trkpt><trkpt lat="43.1310653923413" lon="-2.48775569404295"><ele>525.099973074447</ele><time>2012-05-05T09:12:17Z</time><speed>1.4265766</speed></trkpt><trkpt lat="43.1310228023649" lon="-2.48770419518057"><ele>526.100005475079</ele><time>2012-05-05T09:12:20Z</time><speed>1.4487375</speed></trkpt><trkpt lat="43.1309967677013" lon="-2.48765061639569"><ele>525.500011078235</ele><time>2012-05-05T09:12:23Z</time><speed>1.3586377</speed></trkpt><trkpt lat="43.1309873497963" lon="-2.48757921788868"><ele>526.299851767882</ele><time>2012-05-05T09:12:32Z</time><speed>1.2137042</speed></trkpt><trkpt lat="43.1309481584001" lon="-2.48753820823219"><ele>527.399990146309</ele><time>2012-05-05T09:12:35Z</time><speed>1.3913342</speed></trkpt><trkpt lat="43.1309138168542" lon="-2.48748811619738"><ele>529.000049652585</ele><time>2012-05-05T09:12:39Z</time><speed>1.4860662</speed></trkpt><trkpt lat="43.1308813634037" lon="-2.48742441798868"><ele>530.200041591436</ele><time>2012-05-05T09:12:44Z</time><speed>1.3285298</speed></trkpt><trkpt lat="43.1308630519768" lon="-2.48736822254967"><ele>528.999991011347</ele><time>2012-05-05T09:12:47Z</time><speed>1.3439734</speed></trkpt><trkpt lat="43.1308371338208" lon="-2.48731125372014"><ele>529.799984928745</ele><time>2012-05-05T09:12:50Z</time><speed>1.3547643</speed></trkpt><trkpt lat="43.1308110247666" lon="-2.48725794686665"><ele>529.699988672967</ele><time>2012-05-05T09:12:53Z</time><speed>1.3384484</speed></trkpt><trkpt lat="43.1308032425445" lon="-2.48724209713873"><ele>530.099990332495</ele><time>2012-05-05T09:12:54Z</time><speed>1.3470299</speed></trkpt><trkpt lat="43.1307786824657" lon="-2.48717091972321"><ele>531.499986887491</ele><time>2012-05-05T09:12:59Z</time><speed>1.6</speed></trkpt><trkpt lat="43.1307397510394" lon="-2.48710968591531"><ele>531.599982881537</ele><time>2012-05-05T09:13:03Z</time><speed>1.3584869</speed></trkpt><trkpt lat="43.1306975922294" lon="-2.48705645594713"><ele>530.399976808468</ele><time>2012-05-05T09:13:07Z</time><speed>1.4048644</speed></trkpt><trkpt lat="43.1306623946061" lon="-2.48700863903322"><ele>529.599970677999</ele><time>2012-05-05T09:13:10Z</time><speed>1.7</speed></trkpt><trkpt lat="43.1306138860447" lon="-2.48697718923965"><ele>528.199996319351</ele><time>2012-05-05T09:13:14Z</time><speed>1.4034191</speed></trkpt><trkpt lat="43.1305648962071" lon="-2.4869645146344"><ele>528.299999892495</ele><time>2012-05-05T09:13:18Z</time><speed>1.4092923</speed></trkpt><trkpt lat="43.1305152402703" lon="-2.48694480528396"><ele>529.099991283099</ele><time>2012-05-05T09:13:22Z</time><speed>1.4079337</speed></trkpt><trkpt lat="43.1304605804558" lon="-2.48691585154202"><ele>527.099982235942</ele><time>2012-05-05T09:13:26Z</time><speed>1.5</speed></trkpt><trkpt lat="43.1304171898579" lon="-2.48688906791692"><ele>528.500010702552</ele><time>2012-05-05T09:13:30Z</time><speed>1.1360638</speed></trkpt><trkpt lat="43.1303713001874" lon="-2.4868571545808"><ele>528.399996220987</ele><time>2012-05-05T09:13:35Z</time><speed>1.1659764</speed></trkpt><trkpt lat="43.1303296120143" lon="-2.48680907644634"><ele>528.500002490191</ele><time>2012-05-05T09:13:40Z</time><speed>1.156576</speed></trkpt><trkpt lat="43.1302891575473" lon="-2.48676111457646"><ele>529.10001500477</ele><time>2012-05-05T09:13:45Z</time><speed>1.2704048</speed></trkpt><trkpt lat="43.1302450083085" lon="-2.48672205143169"><ele>529.500012025618</ele><time>2012-05-05T09:13:51Z</time><speed>1.1553603</speed></trkpt><trkpt lat="43.1302461592161" lon="-2.486713557222"><ele>528.899911797294</ele><time>2012-05-05T09:13:54Z</time><speed>1.1852435</speed></trkpt><trkpt lat="43.1302036910474" lon="-2.48666980227593"><ele>530.100007257772</ele><time>2012-05-05T09:13:59Z</time><speed>1.2152654</speed></trkpt><trkpt lat="43.1301636640924" lon="-2.48662640880432"><ele>529.599989114205</ele><time>2012-05-05T09:14:03Z</time><speed>1.2356188</speed></trkpt><trkpt lat="43.1301277377449" lon="-2.48658560759726"><ele>528.800012497176</ele><time>2012-05-05T09:14:07Z</time><speed>1.228647</speed></trkpt><trkpt lat="43.1301066602088" lon="-2.48651967991393"><ele>528.999947408153</ele><time>2012-05-05T09:14:19Z</time><speed>1.1749277</speed></trkpt><trkpt lat="43.1301001253189" lon="-2.48645699709725"><ele>531.599994374593</ele><time>2012-05-05T09:14:23Z</time><speed>1.1350017</speed></trkpt><trkpt lat="43.1300889233967" lon="-2.48638286911915"><ele>532.300000832487</ele><time>2012-05-05T09:14:28Z</time><speed>1.0894595</speed></trkpt><trkpt lat="43.1300710565166" lon="-2.48631407709814"><ele>533.399996102513</ele><time>2012-05-05T09:14:33Z</time><speed>1.0638726</speed></trkpt><trkpt lat="43.130050300497" lon="-2.48625477238297"><ele>533.999995910243</ele><time>2012-05-05T09:14:38Z</time><speed>1.001814</speed></trkpt><trkpt lat="43.1300290995079" lon="-2.48618846166364"><ele>536.199974799419</ele><time>2012-05-05T09:14:43Z</time><speed>1.0419925</speed></trkpt><trkpt lat="43.1300014364507" lon="-2.48612703600199"><ele>536.299999480699</ele><time>2012-05-05T09:14:49Z</time><speed>1.0701838</speed></trkpt><trkpt lat="43.1299710947442" lon="-2.48607705435496"><ele>537.300002722432</ele><time>2012-05-05T09:14:54Z</time><speed>1.0931202</speed></trkpt><trkpt lat="43.1299302327955" lon="-2.48603102969738"><ele>537.199980708494</ele><time>2012-05-05T09:14:59Z</time><speed>1.1884412</speed></trkpt><trkpt lat="43.12989683669" lon="-2.48598930464402"><ele>538.099987544273</ele><time>2012-05-05T09:15:03Z</time><speed>1.2050595</speed></trkpt><trkpt lat="43.1298674502192" lon="-2.48594078196091"><ele>537.499990942117</ele><time>2012-05-05T09:15:07Z</time><speed>1.1505977</speed></trkpt><trkpt lat="43.1298546475676" lon="-2.48589425231883"><ele>539.599898942366</ele><time>2012-05-05T09:15:54Z</time><speed>0.0</speed></trkpt><trkpt lat="43.12983944" lon="-2.48587031"><ele>540.7</ele><time>2012-05-05T09:16:54Z</time><speed>0.0</speed></trkpt><trkpt lat="43.12981754" lon="-2.48588286"><ele>541.6</ele><time>2012-05-05T09:17:54Z</time><speed>0.0</speed></trkpt><trkpt lat="43.12977738" lon="-2.4858363"><ele>541.6</ele><time>2012-05-05T09:18:47Z</time><speed>1.2</speed></trkpt><trkpt lat="43.12973812" lon="-2.4858005"><ele>542.2</ele><time>2012-05-05T09:18:52Z</time><speed>1.2</speed></trkpt><trkpt lat="43.12972197" lon="-2.48578269"><ele>541.9</ele><time>2012-05-05T09:18:54Z</time><speed>1.1</speed></trkpt><trkpt lat="43.12968287" lon="-2.4857344"><ele>543.8</ele><time>2012-05-05T09:18:58Z</time><speed>1.7</speed></trkpt><trkpt lat="43.12964245" lon="-2.48568965"><ele>544.6</ele><time>2012-05-05T09:19:01Z</time><speed>1.7</speed></trkpt><trkpt lat="43.12959628" lon="-2.48564665"><ele>543.7</ele><time>2012-05-05T09:19:05Z</time><speed>1.3000001</speed></trkpt><trkpt lat="43.1295430393221" lon="-2.48563644314971"><ele>544.200000068705</ele><time>2012-05-05T09:19:13Z</time><speed>1.1114466</speed></trkpt><trkpt lat="43.1294959724319" lon="-2.48562690916255"><ele>545.900000099124</ele><time>2012-05-05T09:19:18Z</time><speed>1.2090945</speed></trkpt><trkpt lat="43.1294481932415" lon="-2.48561582798297"><ele>543.500000371567</ele><time>2012-05-05T09:19:23Z</time><speed>1.2813351</speed></trkpt><trkpt lat="43.1293966092888" lon="-2.48558892168633"><ele>540.700000676948</ele><time>2012-05-05T09:19:29Z</time><speed>1.3037138</speed></trkpt><trkpt lat="43.1293428606432" lon="-2.48556981956244"><ele>540.599999910123</ele><time>2012-05-05T09:19:34Z</time><speed>1.2898798</speed></trkpt><trkpt lat="43.129300368669" lon="-2.48554724998954"><ele>539.600000057911</ele><time>2012-05-05T09:19:38Z</time><speed>1.2658731</speed></trkpt><trkpt lat="43.1292592304645" lon="-2.48551969623399"><ele>540.300000448221</ele><time>2012-05-05T09:19:42Z</time><speed>1.3522491</speed></trkpt><trkpt lat="43.1292172836679" lon="-2.48549495321348"><ele>538.100000199884</ele><time>2012-05-05T09:19:46Z</time><speed>1.3052448</speed></trkpt><trkpt lat="43.129177146333" lon="-2.48546369494197"><ele>538.999999863576</ele><time>2012-05-05T09:19:50Z</time><speed>1.2926633</speed></trkpt><trkpt lat="43.1291385046854" lon="-2.48542540944817"><ele>540.299999812961</ele><time>2012-05-05T09:19:54Z</time><speed>1.310427</speed></trkpt><trkpt lat="43.1291099177556" lon="-2.48537706366882"><ele>542.000000589472</ele><time>2012-05-05T09:19:58Z</time><speed>1.3129004</speed></trkpt><trkpt lat="43.1291001331105" lon="-2.48531261588964"><ele>538.499999913057</ele><time>2012-05-05T09:20:02Z</time><speed>1.5</speed></trkpt><trkpt lat="43.1290988488751" lon="-2.48525012666907"><ele>540.999999624757</ele><time>2012-05-05T09:20:05Z</time><speed>1.2885098</speed></trkpt><trkpt lat="43.1290987693812" lon="-2.48518259483047"><ele>541.800006892158</ele><time>2012-05-05T09:20:11Z</time><speed>1.1962664</speed></trkpt><trkpt lat="43.1291039594575" lon="-2.48511496470815"><ele>543.100003607023</ele><time>2012-05-05T09:20:17Z</time><speed>1.2784935</speed></trkpt><trkpt lat="43.1290930295128" lon="-2.48504777940056"><ele>540.200005185827</ele><time>2012-05-05T09:20:23Z</time><speed>1.3386749</speed></trkpt><trkpt lat="43.1290876494454" lon="-2.48497859080665"><ele>541.899998274825</ele><time>2012-05-05T09:20:29Z</time><speed>1.3261814</speed></trkpt><trkpt lat="43.1290711539423" lon="-2.48491791593825"><ele>542.600003578773</ele><time>2012-05-05T09:20:38Z</time><speed>1.3485816</speed></trkpt><trkpt lat="43.1290454647826" lon="-2.48485770968876"><ele>542.700000564123</ele><time>2012-05-05T09:20:43Z</time><speed>1.380921</speed></trkpt><trkpt lat="43.1290185342045" lon="-2.48478872820043"><ele>545.199995892052</ele><time>2012-05-05T09:20:47Z</time><speed>1.3755387</speed></trkpt><trkpt lat="43.1289854144751" lon="-2.48472949132075"><ele>545.29999652161</ele><time>2012-05-05T09:20:51Z</time><speed>1.2711736</speed></trkpt><trkpt lat="43.1289816165694" lon="-2.48470641879908"><ele>545.599977754767</ele><time>2012-05-05T09:20:53Z</time><speed>1.3204</speed></trkpt><trkpt lat="43.1289349939955" lon="-2.48468093680456"><ele>543.599992564245</ele><time>2012-05-05T09:20:59Z</time><speed>1.3870829</speed></trkpt><trkpt lat="43.1288901091377" lon="-2.48466902165172"><ele>543.600001175132</ele><time>2012-05-05T09:21:02Z</time><speed>1.2931726</speed></trkpt><trkpt lat="43.1288568490723" lon="-2.48461865435511"><ele>545.699995609482</ele><time>2012-05-05T09:21:07Z</time><speed>1.2655903</speed></trkpt><trkpt lat="43.1288244857018" lon="-2.48455938621124"><ele>548.899998024574</ele><time>2012-05-05T09:21:10Z</time><speed>1.3547326</speed></trkpt><trkpt lat="43.1287988231541" lon="-2.48450426277093"><ele>550.199998123027</ele><time>2012-05-05T09:21:14Z</time><speed>1.3019532</speed></trkpt><trkpt lat="43.1287645240718" lon="-2.48445274966573"><ele>549.199992233598</ele><time>2012-05-05T09:21:18Z</time><speed>1.3345892</speed></trkpt><trkpt lat="43.128762550651" lon="-2.48439126621649"><ele>547.599972493792</ele><time>2012-05-05T09:21:23Z</time><speed>1.4115729</speed></trkpt><trkpt lat="43.1287502883125" lon="-2.48432223884994"><ele>547.199999213868</ele><time>2012-05-05T09:21:28Z</time><speed>1.3284917</speed></trkpt><trkpt lat="43.1287573543029" lon="-2.4842504668759"><ele>548.999985518992</ele><time>2012-05-05T09:21:31Z</time><speed>1.4246192</speed></trkpt><trkpt lat="43.1287742326816" lon="-2.4841788068221"><ele>550.199970135684</ele><time>2012-05-05T09:21:34Z</time><speed>1.4280399</speed></trkpt><trkpt lat="43.1287728175221" lon="-2.4841037593354"><ele>547.899966537911</ele><time>2012-05-05T09:21:39Z</time><speed>1.3684465</speed></trkpt><trkpt lat="43.1287603100301" lon="-2.48402940583612"><ele>548.999960701345</ele><time>2012-05-05T09:21:42Z</time><speed>1.3388925</speed></trkpt><trkpt lat="43.1287265907897" lon="-2.48395380859447"><ele>549.099973510662</ele><time>2012-05-05T09:21:45Z</time><speed>1.4493661</speed></trkpt><trkpt lat="43.1286985099394" lon="-2.4838898630342"><ele>548.699977221995</ele><time>2012-05-05T09:21:48Z</time><speed>1.4065403</speed></trkpt><trkpt lat="43.1286720276454" lon="-2.48383822889172"><ele>547.599993254066</ele><time>2012-05-05T09:21:51Z</time><speed>1.4641627</speed></trkpt><trkpt lat="43.1286583484057" lon="-2.48380695139216"><ele>547.099998808862</ele><time>2012-05-05T09:21:53Z</time><speed>1.3713123</speed></trkpt><trkpt lat="43.1286295419842" lon="-2.48374898858873"><ele>545.099995215597</ele><time>2012-05-05T09:21:57Z</time><speed>1.3830937</speed></trkpt><trkpt lat="43.1286033986232" lon="-2.48369893659435"><ele>544.699988008317</ele><time>2012-05-05T09:22:00Z</time><speed>1.4056953</speed></trkpt><trkpt lat="43.128566643268" lon="-2.4836392251843"><ele>543.199996168946</ele><time>2012-05-05T09:22:04Z</time><speed>1.4253638</speed></trkpt><trkpt lat="43.1285285692628" lon="-2.48359040771481"><ele>542.899993450429</ele><time>2012-05-05T09:22:08Z</time><speed>1.3344716</speed></trkpt><trkpt lat="43.1284850303675" lon="-2.48354642772713"><ele>542.399995074445</ele><time>2012-05-05T09:22:12Z</time><speed>1.386111</speed></trkpt><trkpt lat="43.1284400637859" lon="-2.48349818904084"><ele>542.699990803344</ele><time>2012-05-05T09:22:16Z</time><speed>1.3662728</speed></trkpt><trkpt lat="43.1283958918672" lon="-2.48346308403844"><ele>543.100002260751</ele><time>2012-05-05T09:22:20Z</time><speed>1.3484274</speed></trkpt><trkpt lat="43.1283530465985" lon="-2.48343271522395"><ele>542.999998985292</ele><time>2012-05-05T09:22:24Z</time><speed>1.3658594</speed></trkpt><trkpt lat="43.1283084545114" lon="-2.48340421401317"><ele>542.999998521956</ele><time>2012-05-05T09:22:28Z</time><speed>1.3554766</speed></trkpt><trkpt lat="43.1282642697512" lon="-2.48336475744508"><ele>543.899994754731</ele><time>2012-05-05T09:22:32Z</time><speed>1.3498133</speed></trkpt><trkpt lat="43.1282205005884" lon="-2.48332608555064"><ele>544.399998553984</ele><time>2012-05-05T09:22:36Z</time><speed>1.3978298</speed></trkpt><trkpt lat="43.1281753255873" lon="-2.48328855561871"><ele>545.599996426433</ele><time>2012-05-05T09:22:40Z</time><speed>1.6</speed></trkpt><trkpt lat="43.1281283524397" lon="-2.48324229231095"><ele>545.699994560566</ele><time>2012-05-05T09:22:44Z</time><speed>1.411381</speed></trkpt><trkpt lat="43.1280800866293" lon="-2.48321198785171"><ele>545.499993940176</ele><time>2012-05-05T09:22:48Z</time><speed>1.5</speed></trkpt><trkpt lat="43.1280320283013" lon="-2.48318406513686"><ele>544.899999050916</ele><time>2012-05-05T09:22:52Z</time><speed>1.3732407</speed></trkpt><trkpt lat="43.1280209337885" lon="-2.48317780761865"><ele>544.500002081539</ele><time>2012-05-05T09:22:53Z</time><speed>1.380829</speed></trkpt><trkpt lat="43.1279732518443" lon="-2.48315355787065"><ele>544.300011694261</ele><time>2012-05-05T09:22:59Z</time><speed>1.3826278</speed></trkpt><trkpt lat="43.1279203492181" lon="-2.4831250946879"><ele>543.699992966</ele><time>2012-05-05T09:23:03Z</time><speed>1.300975</speed></trkpt><trkpt lat="43.1278744067202" lon="-2.48309022309538"><ele>545.699986523761</ele><time>2012-05-05T09:23:07Z</time><speed>1.2955338</speed></trkpt><trkpt lat="43.1278290979738" lon="-2.48305182731879"><ele>544.599993483368</ele><time>2012-05-05T09:23:12Z</time><speed>1.3205736</speed></trkpt><trkpt lat="43.1277836128154" lon="-2.48301958352143"><ele>545.299995299279</ele><time>2012-05-05T09:23:15Z</time><speed>1.2861226</speed></trkpt><trkpt lat="43.1277392683511" lon="-2.4830084401057"><ele>544.400011074629</ele><time>2012-05-05T09:23:19Z</time><speed>1.3666627</speed></trkpt><trkpt lat="43.1276871361927" lon="-2.48298425112425"><ele>544.300006434471</ele><time>2012-05-05T09:23:24Z</time><speed>1.3030974</speed></trkpt><trkpt lat="43.1276487884753" lon="-2.48294464110173"><ele>544.299997107476</ele><time>2012-05-05T09:23:28Z</time><speed>1.2795489</speed></trkpt><trkpt lat="43.1276123365144" lon="-2.48290448941554"><ele>544.300004188924</ele><time>2012-05-05T09:23:32Z</time><speed>1.3599994</speed></trkpt><trkpt lat="43.1275737747662" lon="-2.48285137781956"><ele>544.700008025786</ele><time>2012-05-05T09:23:37Z</time><speed>1.3218321</speed></trkpt><trkpt lat="43.1275416686398" lon="-2.48280289177998"><ele>545.199996319708</ele><time>2012-05-05T09:23:41Z</time><speed>1.3700396</speed></trkpt><trkpt lat="43.127508182545" lon="-2.482755057161"><ele>545.000001079627</ele><time>2012-05-05T09:23:45Z</time><speed>1.3762828</speed></trkpt><trkpt lat="43.1274758379189" lon="-2.48270517913074"><ele>545.199999961259</ele><time>2012-05-05T09:23:49Z</time><speed>1.3408881</speed></trkpt><trkpt lat="43.127450384538" lon="-2.48266552078193"><ele>545.400024175164</ele><time>2012-05-05T09:23:53Z</time><speed>1.3977259</speed></trkpt><trkpt lat="43.1274176684859" lon="-2.48261140453999"><ele>545.300005741107</ele><time>2012-05-05T09:23:58Z</time><speed>1.3828181</speed></trkpt><trkpt lat="43.1273802779116" lon="-2.48255105415701"><ele>545.399980888559</ele><time>2012-05-05T09:24:02Z</time><speed>1.3494567</speed></trkpt><trkpt lat="43.1273426384765" lon="-2.48250527979691"><ele>544.899993273418</ele><time>2012-05-05T09:24:06Z</time><speed>1.3582745</speed></trkpt><trkpt lat="43.127304872779" lon="-2.48244947668602"><ele>544.599984536865</ele><time>2012-05-05T09:24:10Z</time><speed>1.3779337</speed></trkpt><trkpt lat="43.1272744841323" lon="-2.48239111133068"><ele>544.400003491083</ele><time>2012-05-05T09:24:14Z</time><speed>1.3991388</speed></trkpt><trkpt lat="43.1272357939634" lon="-2.48233786894126"><ele>543.900004547912</ele><time>2012-05-05T09:24:19Z</time><speed>1.3767582</speed></trkpt><trkpt lat="43.1271925099371" lon="-2.48231001156195"><ele>541.59999817024</ele><time>2012-05-05T09:24:21Z</time><speed>3.0</speed></trkpt><trkpt lat="43.1271620237381" lon="-2.48226298866278"><ele>543.199979725837</ele><time>2012-05-05T09:24:24Z</time><speed>1.3656136</speed></trkpt><trkpt lat="43.1271181903418" lon="-2.48228062381143"><ele>540.000105066244</ele><time>2012-05-05T09:24:33Z</time><speed>3.1</speed></trkpt><trkpt lat="43.1271126715807" lon="-2.48220721486678"><ele>539.39979786352</ele><time>2012-05-05T09:24:38Z</time><speed>1.4591</speed></trkpt><trkpt lat="43.1271034910188" lon="-2.48213763587641"><ele>540.299868718314</ele><time>2012-05-05T09:24:40Z</time><speed>1.4370246</speed></trkpt><trkpt lat="43.1271007747032" lon="-2.4820645419285"><ele>540.499920815066</ele><time>2012-05-05T09:24:42Z</time><speed>1.5486517</speed></trkpt><trkpt lat="43.1270928224707" lon="-2.48200148049096"><ele>541.099944108703</ele><time>2012-05-05T09:24:44Z</time><speed>1.505925</speed></trkpt><trkpt lat="43.1270867780782" lon="-2.4819403172419"><ele>541.699966220039</ele><time>2012-05-05T09:24:46Z</time><speed>1.4681764</speed></trkpt><trkpt lat="43.1270731018887" lon="-2.48187482324978"><ele>540.399976915218</ele><time>2012-05-05T09:24:49Z</time><speed>1.4564929</speed></trkpt><trkpt lat="43.1270598130365" lon="-2.48180935165587"><ele>540.499979561993</ele><time>2012-05-05T09:24:52Z</time><speed>1.4843457</speed></trkpt><trkpt lat="43.1270531746562" lon="-2.4817944587303"><ele>540.499994429863</ele><time>2012-05-05T09:24:53Z</time><speed>1.4663407</speed></trkpt><trkpt lat="43.1270201503167" lon="-2.48173483634414"><ele>540.100018245958</ele><time>2012-05-05T09:24:58Z</time><speed>1.3980851</speed></trkpt><trkpt lat="43.1269967907123" lon="-2.48168070664069"><ele>539.700001779251</ele><time>2012-05-05T09:25:02Z</time><speed>1.4087108</speed></trkpt><trkpt lat="43.1269621819225" lon="-2.48162307463946"><ele>539.399983351685</ele><time>2012-05-05T09:25:06Z</time><speed>1.3279657</speed></trkpt><trkpt lat="43.126921396415" lon="-2.48156840207858"><ele>538.59997994685</ele><time>2012-05-05T09:25:10Z</time><speed>1.378832</speed></trkpt><trkpt lat="43.1268869453975" lon="-2.48150303092997"><ele>539.099978029076</ele><time>2012-05-05T09:25:14Z</time><speed>1.6</speed></trkpt><trkpt lat="43.1268659776801" lon="-2.48142920757866"><ele>538.49998765437</ele><time>2012-05-05T09:25:18Z</time><speed>1.4104681</speed></trkpt><trkpt lat="43.1268359150216" lon="-2.48136480735748"><ele>537.099991148295</ele><time>2012-05-05T09:25:22Z</time><speed>1.4492539</speed></trkpt><trkpt lat="43.1267975053975" lon="-2.48131423221047"><ele>535.200016596398</ele><time>2012-05-05T09:25:27Z</time><speed>1.3377769</speed></trkpt><trkpt lat="43.1267605729628" lon="-2.48127544134455"><ele>534.299989667088</ele><time>2012-05-05T09:25:31Z</time><speed>1.1948869</speed></trkpt><trkpt lat="43.1267194434583" lon="-2.48123603765929"><ele>533.49999689841</ele><time>2012-05-05T09:25:35Z</time><speed>1.5089939</speed></trkpt><trkpt lat="43.1267261262901" lon="-2.48117135553212"><ele>534.199830443884</ele><time>2012-05-05T09:25:40Z</time><speed>2.0</speed></trkpt><trkpt lat="43.1267121281781" lon="-2.4811127345331"><ele>534.999979736943</ele><time>2012-05-05T09:25:42Z</time><speed>1.3157258</speed></trkpt><trkpt lat="43.1267586980198" lon="-2.48111448470136"><ele>536.499916574371</ele><time>2012-05-05T09:25:49Z</time><speed>1.3206173</speed></trkpt><trkpt lat="43.1267641930588" lon="-2.48110694306454"><ele>536.499889189274</ele><time>2012-05-05T09:25:53Z</time><speed>1.2198763</speed></trkpt><trkpt lat="43.1267667707736" lon="-2.4811164715656"><ele>538.699961559401</ele><time>2012-05-05T09:26:53Z</time><speed>0.0</speed></trkpt><trkpt lat="43.1267689585794" lon="-2.4811918766093"><ele>538.6999855177</ele><time>2012-05-05T09:29:08Z</time><speed>1.2086984</speed></trkpt><trkpt lat="43.1267971876122" lon="-2.4812627292661"><ele>540.100040738585</ele><time>2012-05-05T09:29:12Z</time><speed>1.2478617</speed></trkpt><trkpt lat="43.1268235972276" lon="-2.48131277561692"><ele>540.000064253288</ele><time>2012-05-05T09:29:15Z</time><speed>1.2296598</speed></trkpt><trkpt lat="43.1268647611438" lon="-2.48136416059086"><ele>539.700018731963</ele><time>2012-05-05T09:29:19Z</time><speed>1.3168539</speed></trkpt><trkpt lat="43.1268766064501" lon="-2.48143837289757"><ele>542.200000672898</ele><time>2012-05-05T09:29:24Z</time><speed>1.2386972</speed></trkpt><trkpt lat="43.1268278002178" lon="-2.48145633096036"><ele>541.399997601943</ele><time>2012-05-05T09:29:31Z</time><speed>1.3079215</speed></trkpt><trkpt lat="43.1268324393927" lon="-2.48141088784726"><ele>541.399939737141</ele><time>2012-05-05T09:29:53Z</time><speed>0.0</speed></trkpt><trkpt lat="43.1267868470963" lon="-2.48136694990756"><ele>542.799988077566</ele><time>2012-05-05T09:30:02Z</time><speed>1.4245552</speed></trkpt><trkpt lat="43.1267584026034" lon="-2.48130446029099"><ele>545.499898970029</ele><time>2012-05-05T09:30:05Z</time><speed>1.4051785</speed></trkpt><trkpt lat="43.1267256509877" lon="-2.48123159725367"><ele>545.799926058337</ele><time>2012-05-05T09:30:08Z</time><speed>1.4160135</speed></trkpt><trkpt lat="43.1267091652254" lon="-2.48117078233202"><ele>546.199962809755</ele><time>2012-05-05T09:30:11Z</time><speed>1.2820822</speed></trkpt><trkpt lat="43.1267025399852" lon="-2.48110924022301"><ele>547.200010693623</ele><time>2012-05-05T09:30:15Z</time><speed>1.2467494</speed></trkpt><trkpt lat="43.12666934" lon="-2.48116114"><ele>548.6</ele><time>2012-05-05T09:30:40Z</time><speed>0.5</speed></trkpt><trkpt lat="43.1266188022766" lon="-2.48113672187465"><ele>550.199999818169</ele><time>2012-05-05T09:30:45Z</time><speed>1.302156</speed></trkpt><trkpt lat="43.1265798948405" lon="-2.48108423298509"><ele>550.399999679675</ele><time>2012-05-05T09:30:49Z</time><speed>1.3767112</speed></trkpt><trkpt lat="43.1265544897972" lon="-2.48102629821848"><ele>550.599998342383</ele><time>2012-05-05T09:30:53Z</time><speed>1.3443356</speed></trkpt><trkpt lat="43.1265378483002" lon="-2.48094979461289"><ele>549.19999829399</ele><time>2012-05-05T09:30:59Z</time><speed>1.2123321</speed></trkpt><trkpt lat="43.1265296707048" lon="-2.48088148885862"><ele>551.399998304577</ele><time>2012-05-05T09:31:03Z</time><speed>1.1344198</speed></trkpt><trkpt lat="43.1264913483286" lon="-2.48083078279244"><ele>553.099999384916</ele><time>2012-05-05T09:31:44Z</time><speed>1.2337655</speed></trkpt><trkpt lat="43.1264543867799" lon="-2.48078184841123"><ele>556.599998158551</ele><time>2012-05-05T09:31:48Z</time><speed>1.3690882</speed></trkpt><trkpt lat="43.1264111130878" lon="-2.48073641897712"><ele>555.999998499505</ele><time>2012-05-05T09:31:52Z</time><speed>1.2437665</speed></trkpt><trkpt lat="43.1264013148122" lon="-2.48073146701289"><ele>555.999999847311</ele><time>2012-05-05T09:31:53Z</time><speed>1.158897</speed></trkpt><trkpt lat="43.1263520462186" lon="-2.48070151609266"><ele>559.000000773577</ele><time>2012-05-05T09:31:58Z</time><speed>1.252329</speed></trkpt><trkpt lat="43.1263004924969" lon="-2.48067119425299"><ele>558.799999699378</ele><time>2012-05-05T09:32:03Z</time><speed>1.369582</speed></trkpt><trkpt lat="43.1262663682887" lon="-2.48061371912614"><ele>554.300002383544</ele><time>2012-05-05T09:32:08Z</time><speed>1.3953009</speed></trkpt><trkpt lat="43.1262239340247" lon="-2.48057088000121"><ele>554.499998568718</ele><time>2012-05-05T09:32:12Z</time><speed>1.3729784</speed></trkpt><trkpt lat="43.1261798606686" lon="-2.48052641071472"><ele>555.999999033568</ele><time>2012-05-05T09:32:16Z</time><speed>1.4063412</speed></trkpt><trkpt lat="43.1261558235693" lon="-2.48045980297323"><ele>554.599992106946</ele><time>2012-05-05T09:32:20Z</time><speed>1.3385743</speed></trkpt><trkpt lat="43.1261567674262" lon="-2.48038964443139"><ele>554.999985446841</ele><time>2012-05-05T09:32:24Z</time><speed>1.4107339</speed></trkpt><trkpt lat="43.1261242041154" lon="-2.48033798783472"><ele>549.300008617278</ele><time>2012-05-05T09:32:28Z</time><speed>1.2316532</speed></trkpt><trkpt lat="43.1261150478831" lon="-2.48034924304714"><ele>551.59999215652</ele><time>2012-05-05T09:32:53Z</time><speed>0.0</speed></trkpt><trkpt lat="43.1260646418175" lon="-2.48034171300316"><ele>551.200004695984</ele><time>2012-05-05T09:33:31Z</time><speed>1.3110877</speed></trkpt><trkpt lat="43.1260325821684" lon="-2.48027896370493"><ele>551.900001380333</ele><time>2012-05-05T09:33:36Z</time><speed>1.330521</speed></trkpt><trkpt lat="43.1260680450687" lon="-2.48027721214504"><ele>551.799970497153</ele><time>2012-05-05T09:33:54Z</time><speed>0.0</speed></trkpt><trkpt lat="43.126119034985" lon="-2.48028750272321"><ele>555.100002696652</ele><time>2012-05-05T09:34:29Z</time><speed>1.1132252</speed></trkpt><trkpt lat="43.1260884242369" lon="-2.48023894268391"><ele>555.999994934697</ele><time>2012-05-05T09:34:37Z</time><speed>1.441155</speed></trkpt><trkpt lat="43.1260508751858" lon="-2.48019734814268"><ele>558.999994175426</ele><time>2012-05-05T09:34:40Z</time><speed>1.401717</speed></trkpt><trkpt lat="43.1260043168483" lon="-2.48014400931911"><ele>559.199994726964</ele><time>2012-05-05T09:34:44Z</time><speed>1.4495939</speed></trkpt><trkpt lat="43.1259647678624" lon="-2.4801043365576"><ele>557.699991954575</ele><time>2012-05-05T09:34:47Z</time><speed>1.3996627</speed></trkpt><trkpt lat="43.1259252335125" lon="-2.4800431836887"><ele>557.199992323089</ele><time>2012-05-05T09:34:50Z</time><speed>1.4630585</speed></trkpt><trkpt lat="43.1258944138831" lon="-2.47999311946843"><ele>556.799994259062</ele><time>2012-05-05T09:34:53Z</time><speed>1.3902345</speed></trkpt><trkpt lat="43.1258861935315" lon="-2.47998068474979"><ele>556.899998666622</ele><time>2012-05-05T09:34:54Z</time><speed>1.3733255</speed></trkpt><trkpt lat="43.125873636278" lon="-2.47991917398246"><ele>556.899969074495</ele><time>2012-05-05T09:35:02Z</time><speed>1.3794752</speed></trkpt><trkpt lat="43.1258358820038" lon="-2.47988270001731"><ele>558.299990189651</ele><time>2012-05-05T09:35:05Z</time><speed>1.4549892</speed></trkpt><trkpt lat="43.1258074383" lon="-2.47982171263393"><ele>558.499998959781</ele><time>2012-05-05T09:35:09Z</time><speed>1.3979193</speed></trkpt><trkpt lat="43.1257664002833" lon="-2.47977164176848"><ele>557.79999228149</ele><time>2012-05-05T09:35:13Z</time><speed>1.4672635</speed></trkpt><trkpt lat="43.1257293437487" lon="-2.47973524901156"><ele>557.899990822401</ele><time>2012-05-05T09:35:16Z</time><speed>1.3795003</speed></trkpt><trkpt lat="43.1257129367461" lon="-2.47966928023503"><ele>558.299988956098</ele><time>2012-05-05T09:35:22Z</time><speed>1.3909278</speed></trkpt><trkpt lat="43.1256959228456" lon="-2.47960603700947"><ele>558.899986294403</ele><time>2012-05-05T09:35:26Z</time><speed>1.3804425</speed></trkpt><trkpt lat="43.1256791051027" lon="-2.47952013190875"><ele>559.399976093888</ele><time>2012-05-05T09:35:29Z</time><speed>1.4073223</speed></trkpt><trkpt lat="43.1256700235617" lon="-2.47943905603917"><ele>558.899981799507</ele><time>2012-05-05T09:35:32Z</time><speed>1.373672</speed></trkpt><trkpt lat="43.1256600310828" lon="-2.47937716027452"><ele>559.299994096646</ele><time>2012-05-05T09:35:35Z</time><speed>1.5</speed></trkpt><trkpt lat="43.1256398616677" lon="-2.47931053004423"><ele>557.600001648159</ele><time>2012-05-05T09:35:40Z</time><speed>1.1154264</speed></trkpt><trkpt lat="43.1256007139226" lon="-2.4792662625197"><ele>555.900001353066</ele><time>2012-05-05T09:35:45Z</time><speed>1.1513834</speed></trkpt><trkpt lat="43.1255573878784" lon="-2.47922497658775"><ele>557.199990454717</ele><time>2012-05-05T09:35:49Z</time><speed>1.1946284</speed></trkpt><trkpt lat="43.1255098380242" lon="-2.47920285016068"><ele>555.89999886465</ele><time>2012-05-05T09:35:53Z</time><speed>1.1277288</speed></trkpt><trkpt lat="43.125499088653" lon="-2.479200206807"><ele>555.799999516226</ele><time>2012-05-05T09:35:54Z</time><speed>1.1422651</speed></trkpt><trkpt lat="43.1254548839966" lon="-2.47916338493146"><ele>556.899997361164</ele><time>2012-05-05T09:35:59Z</time><speed>1.198199</speed></trkpt><trkpt lat="43.1254230452242" lon="-2.47910414394707"><ele>555.900000883132</ele><time>2012-05-05T09:36:04Z</time><speed>1.2605108</speed></trkpt><trkpt lat="43.1253968328829" lon="-2.47905279865503"><ele>555.599993080141</ele><time>2012-05-05T09:36:09Z</time><speed>1.6</speed></trkpt><trkpt lat="43.1253526954633" lon="-2.4790263993027"><ele>556.399997022594</ele><time>2012-05-05T09:36:13Z</time><speed>1.2109423</speed></trkpt><trkpt lat="43.1253001328936" lon="-2.47902536289803"><ele>557.299996042057</ele><time>2012-05-05T09:36:18Z</time><speed>1.3587314</speed></trkpt><trkpt lat="43.1252482527204" lon="-2.47902654349984"><ele>557.900008774576</ele><time>2012-05-05T09:36:23Z</time><speed>1.2688195</speed></trkpt><trkpt lat="43.1252009657917" lon="-2.47903642947976"><ele>558.299996626164</ele><time>2012-05-05T09:36:28Z</time><speed>1.1686797</speed></trkpt><trkpt lat="43.125158312181" lon="-2.4790604050067"><ele>559.19998153747</ele><time>2012-05-05T09:36:33Z</time><speed>1.1782793</speed></trkpt><trkpt lat="43.1251106214486" lon="-2.47905272368987"><ele>555.399990254376</ele><time>2012-05-05T09:36:38Z</time><speed>1.208754</speed></trkpt><trkpt lat="43.1250652645732" lon="-2.47905881825643"><ele>554.199992174572</ele><time>2012-05-05T09:36:42Z</time><speed>1.2054116</speed></trkpt><trkpt lat="43.1250092887334" lon="-2.47904978636081"><ele>552.799984901253</ele><time>2012-05-05T09:36:46Z</time><speed>1.2116262</speed></trkpt><trkpt lat="43.1249516115321" lon="-2.47903402468109"><ele>553.099970572512</ele><time>2012-05-05T09:36:50Z</time><speed>1.1750399</speed></trkpt><trkpt lat="43.1248954651987" lon="-2.47902320818441"><ele>552.799960957451</ele><time>2012-05-05T09:36:54Z</time><speed>1.1633965</speed></trkpt><trkpt lat="43.1248433026203" lon="-2.47902808177018"><ele>554.799989480054</ele><time>2012-05-05T09:36:58Z</time><speed>1.1016457</speed></trkpt><trkpt lat="43.1247881937605" lon="-2.47902808455621"><ele>556.799989271658</ele><time>2012-05-05T09:37:03Z</time><speed>1.1502146</speed></trkpt><trkpt lat="43.1247398171872" lon="-2.4790552111668"><ele>558.299998896086</ele><time>2012-05-05T09:37:08Z</time><speed>1.1441562</speed></trkpt><trkpt lat="43.1246953236512" lon="-2.47908860786226"><ele>558.800011348858</ele><time>2012-05-05T09:37:13Z</time><speed>1.1500105</speed></trkpt><trkpt lat="43.1246521498276" lon="-2.47912195786152"><ele>559.200003852249</ele><time>2012-05-05T09:37:18Z</time><speed>1.3738247</speed></trkpt><trkpt lat="43.1246113464051" lon="-2.47915731367468"><ele>561.699990972858</ele><time>2012-05-05T09:37:23Z</time><speed>1.3584222</speed></trkpt><trkpt lat="43.1245599818327" lon="-2.47916721611143"><ele>560.999997966564</ele><time>2012-05-05T09:37:28Z</time><speed>1.2187678</speed></trkpt><trkpt lat="43.1245142468216" lon="-2.47918326096885"><ele>564.000012587471</ele><time>2012-05-05T09:37:33Z</time><speed>1.097499</speed></trkpt><trkpt lat="43.1244695707487" lon="-2.4792087139564"><ele>565.100008755095</ele><time>2012-05-05T09:37:39Z</time><speed>1.2066315</speed></trkpt><trkpt lat="43.1244250994452" lon="-2.47923094331728"><ele>565.799998651073</ele><time>2012-05-05T09:37:44Z</time><speed>1.2443795</speed></trkpt><trkpt lat="43.1243779398207" lon="-2.47925041659879"><ele>567.59999177585</ele><time>2012-05-05T09:37:48Z</time><speed>1.1314577</speed></trkpt><trkpt lat="43.1243279927361" lon="-2.4792570926544"><ele>568.89999052752</ele><time>2012-05-05T09:37:53Z</time><speed>1.1152585</speed></trkpt><trkpt lat="43.1243188699089" lon="-2.47925921910553"><ele>569.099994318079</ele><time>2012-05-05T09:37:54Z</time><speed>1.1439835</speed></trkpt><trkpt lat="43.1242728883708" lon="-2.47926850929074"><ele>569.899990174877</ele><time>2012-05-05T09:37:58Z</time><speed>1.1277014</speed></trkpt><trkpt lat="43.1242210508833" lon="-2.47928376232337"><ele>571.199994871941</ele><time>2012-05-05T09:38:03Z</time><speed>1.1244563</speed></trkpt><trkpt lat="43.124174625741" lon="-2.47930407057795"><ele>572.900016973428</ele><time>2012-05-05T09:38:09Z</time><speed>1.1108744</speed></trkpt><trkpt lat="43.1241295591423" lon="-2.47930601456458"><ele>574.099989042412</ele><time>2012-05-05T09:38:14Z</time><speed>1.091155</speed></trkpt><trkpt lat="43.1240793291513" lon="-2.47931973287179"><ele>574.299995867478</ele><time>2012-05-05T09:38:19Z</time><speed>1.1480882</speed></trkpt><trkpt lat="43.1240375178208" lon="-2.47934277092257"><ele>574.099988569327</ele><time>2012-05-05T09:38:23Z</time><speed>1.1533861</speed></trkpt><trkpt lat="43.1239886161548" lon="-2.47936926255228"><ele>575.29998062291</ele><time>2012-05-05T09:38:27Z</time><speed>1.1670392</speed></trkpt><trkpt lat="43.1239378449988" lon="-2.47937674162641"><ele>576.200001855606</ele><time>2012-05-05T09:38:32Z</time><speed>1.1122783</speed></trkpt><trkpt lat="43.123892279525" lon="-2.47939798263163"><ele>577.600001361337</ele><time>2012-05-05T09:38:37Z</time><speed>1.1581802</speed></trkpt><trkpt lat="43.1238445476067" lon="-2.47942613204119"><ele>579.700008865098</ele><time>2012-05-05T09:38:43Z</time><speed>1.1207168</speed></trkpt><trkpt lat="43.1237964326085" lon="-2.47942242441857"><ele>581.299993056786</ele><time>2012-05-05T09:38:48Z</time><speed>1.7</speed></trkpt><trkpt lat="43.1237535712673" lon="-2.47938804490001"><ele>582.199983184585</ele><time>2012-05-05T09:38:52Z</time><speed>1.1146011</speed></trkpt><trkpt lat="43.123731962471" lon="-2.47936796223441"><ele>581.799980618845</ele><time>2012-05-05T09:38:54Z</time><speed>1.1114762</speed></trkpt><trkpt lat="43.1237039470756" lon="-2.47931473559473"><ele>582.200008589365</ele><time>2012-05-05T09:38:59Z</time><speed>1.1423709</speed></trkpt><trkpt lat="43.1236673797325" lon="-2.47925919864835"><ele>582.600001348705</ele><time>2012-05-05T09:39:08Z</time><speed>1.1528476</speed></trkpt><trkpt lat="43.1236337223585" lon="-2.47921596331338"><ele>583.999969398811</ele><time>2012-05-05T09:39:15Z</time><speed>1.1554853</speed></trkpt><trkpt lat="43.1235883176025" lon="-2.47920015455236"><ele>583.900010972052</ele><time>2012-05-05T09:39:20Z</time><speed>1.0457762</speed></trkpt><trkpt lat="43.1235387456664" lon="-2.47918966971634"><ele>584.700002510085</ele><time>2012-05-05T09:39:27Z</time><speed>0.8774903</speed></trkpt><trkpt lat="43.1234942208904" lon="-2.479212084509"><ele>584.900000701062</ele><time>2012-05-05T09:39:33Z</time><speed>1.0032235</speed></trkpt><trkpt lat="43.1234558534436" lon="-2.47926151934428"><ele>585.39998764692</ele><time>2012-05-05T09:39:38Z</time><speed>1.0509634</speed></trkpt><trkpt lat="43.1234272018678" lon="-2.47931300249868"><ele>585.299990055527</ele><time>2012-05-05T09:39:43Z</time><speed>1.0633316</speed></trkpt><trkpt lat="43.1234133735216" lon="-2.47937606061249"><ele>585.199994220631</ele><time>2012-05-05T09:39:49Z</time><speed>1.1633686</speed></trkpt><trkpt lat="43.1234292193141" lon="-2.47935229056253"><ele>584.999936982991</ele><time>2012-05-05T09:39:54Z</time><speed>0.0</speed></trkpt><trkpt lat="43.1234311183693" lon="-2.47934731657272"><ele>587.199954712899</ele><time>2012-05-05T09:40:54Z</time><speed>0.0</speed></trkpt><trkpt lat="43.1234021808629" lon="-2.47939886621296"><ele>587.999980361546</ele><time>2012-05-05T09:41:03Z</time><speed>1.2317009</speed></trkpt><trkpt lat="43.1233931178528" lon="-2.47946263613487"><ele>587.400003669255</ele><time>2012-05-05T09:41:07Z</time><speed>1.2499895</speed></trkpt><trkpt lat="43.1233831003316" lon="-2.47952271693236"><ele>587.799997979031</ele><time>2012-05-05T09:41:11Z</time><speed>1.2174857</speed></trkpt><trkpt lat="43.123365791458" lon="-2.47959212019057"><ele>587.000002006634</ele><time>2012-05-05T09:41:16Z</time><speed>1.211911</speed></trkpt><trkpt lat="43.1233935567788" lon="-2.47961854831489"><ele>585.499972213346</ele><time>2012-05-05T09:41:54Z</time><speed>0.0</speed></trkpt><trkpt lat="43.12340253" lon="-2.47957394"><ele>584.7</ele><time>2012-05-05T09:42:54Z</time><speed>0.0</speed></trkpt><trkpt lat="43.12341235" lon="-2.47956125"><ele>586.6</ele><time>2012-05-05T09:43:54Z</time><speed>0.0</speed></trkpt><trkpt lat="43.12343868" lon="-2.47956354"><ele>587.9</ele><time>2012-05-05T09:44:54Z</time><speed>0.0</speed></trkpt><trkpt lat="43.12340355" lon="-2.47957371"><ele>592.6</ele><time>2012-05-05T09:45:54Z</time><speed>0.0</speed></trkpt><trkpt lat="43.12343054" lon="-2.47956056"><ele>593.6</ele><time>2012-05-05T09:46:54Z</time><speed>0.0</speed></trkpt><trkpt lat="43.12343111" lon="-2.47956801"><ele>593.0</ele><time>2012-05-05T09:47:54Z</time><speed>0.0</speed></trkpt><trkpt lat="43.12341832" lon="-2.47958024"><ele>594.5</ele><time>2012-05-05T09:48:54Z</time><speed>0.0</speed></trkpt><trkpt lat="43.12338871" lon="-2.47959779"><ele>594.0</ele><time>2012-05-05T09:49:54Z</time><speed>0.0</speed></trkpt><trkpt lat="43.1234097" lon="-2.47958073"><ele>593.9</ele><time>2012-05-05T09:50:54Z</time><speed>0.0</speed></trkpt><trkpt lat="43.12341877" lon="-2.47956665"><ele>594.1</ele><time>2012-05-05T09:51:54Z</time><speed>0.0</speed></trkpt><trkpt lat="43.12341869" lon="-2.47954683"><ele>591.2</ele><time>2012-05-05T09:52:54Z</time><speed>0.0</speed></trkpt><trkpt lat="43.12341906" lon="-2.47954728"><ele>591.1</ele><time>2012-05-05T09:53:54Z</time><speed>0.0</speed></trkpt><trkpt lat="43.12341544" lon="-2.47957796"><ele>587.8</ele><time>2012-05-05T09:54:54Z</time><speed>0.0</speed></trkpt><trkpt lat="43.12343674" lon="-2.47958904"><ele>582.2</ele><time>2012-05-05T09:55:54Z</time><speed>0.0</speed></trkpt><trkpt lat="43.12344887" lon="-2.47965653"><ele>583.9</ele><time>2012-05-05T09:56:33Z</time><speed>1.0</speed></trkpt><trkpt lat="43.12346663" lon="-2.47971389"><ele>584.1</ele><time>2012-05-05T09:56:37Z</time><speed>1.1</speed></trkpt><trkpt lat="43.12347465" lon="-2.47978017"><ele>584.8</ele><time>2012-05-05T09:56:41Z</time><speed>1.1</speed></trkpt><trkpt lat="43.12350575" lon="-2.47982662"><ele>584.4</ele><time>2012-05-05T09:56:45Z</time><speed>1.1</speed></trkpt><trkpt lat="43.12353358" lon="-2.47988134"><ele>584.5</ele><time>2012-05-05T09:56:50Z</time><speed>0.9</speed></trkpt><trkpt lat="43.12355783" lon="-2.47991707"><ele>585.2</ele><time>2012-05-05T09:56:54Z</time><speed>1.0</speed></trkpt><trkpt lat="43.12358035" lon="-2.47998366"><ele>586.7</ele><time>2012-05-05T09:56:59Z</time><speed>1.1</speed></trkpt><trkpt lat="43.12360567" lon="-2.48005043"><ele>587.6</ele><time>2012-05-05T09:57:04Z</time><speed>1.2</speed></trkpt><trkpt lat="43.12361446" lon="-2.48012301"><ele>588.4</ele><time>2012-05-05T09:57:08Z</time><speed>1.2</speed></trkpt><trkpt lat="43.1236211" lon="-2.48019379"><ele>590.0</ele><time>2012-05-05T09:57:12Z</time><speed>1.3000001</speed></trkpt><trkpt lat="43.12363215" lon="-2.48025346"><ele>590.4</ele><time>2012-05-05T09:57:16Z</time><speed>0.9</speed></trkpt><trkpt lat="43.1236384298938" lon="-2.48031787264058"><ele>594.900000015659</ele><time>2012-05-05T09:57:20Z</time><speed>1.9</speed></trkpt><trkpt lat="43.1236577605624" lon="-2.48039101425171"><ele>594.900000116697</ele><time>2012-05-05T09:57:25Z</time><speed>1.3682268</speed></trkpt><trkpt lat="43.1236825241879" lon="-2.48045598090382"><ele>595.000000695729</ele><time>2012-05-05T09:57:30Z</time><speed>1.6</speed></trkpt><trkpt lat="43.1236961580782" lon="-2.48051998630663"><ele>592.599999775197</ele><time>2012-05-05T09:57:34Z</time><speed>1.4786488</speed></trkpt><trkpt lat="43.1237239650271" lon="-2.48057917968218"><ele>591.700000432131</ele><time>2012-05-05T09:57:39Z</time><speed>1.6</speed></trkpt><trkpt lat="43.1237363773998" lon="-2.48064946219996"><ele>592.399996759485</ele><time>2012-05-05T09:57:43Z</time><speed>1.422921</speed></trkpt><trkpt lat="43.1237715376674" lon="-2.48070659003905"><ele>592.399997193272</ele><time>2012-05-05T09:57:47Z</time><speed>1.6</speed></trkpt><trkpt lat="43.1238064916726" lon="-2.48075568163858"><ele>590.700002183212</ele><time>2012-05-05T09:57:52Z</time><speed>1.385224</speed></trkpt><trkpt lat="43.1238251000726" lon="-2.48075933697065"><ele>591.299997964827</ele><time>2012-05-05T09:57:54Z</time><speed>1.3833433</speed></trkpt><trkpt lat="43.123839448807" lon="-2.48083046234259"><ele>591.299992805074</ele><time>2012-05-05T09:57:58Z</time><speed>1.9</speed></trkpt><trkpt lat="43.1238440236328" lon="-2.48090561385703"><ele>591.499980278462</ele><time>2012-05-05T09:58:02Z</time><speed>1.3483411</speed></trkpt><trkpt lat="43.1238731649603" lon="-2.48095815751202"><ele>591.099986392833</ele><time>2012-05-05T09:58:08Z</time><speed>1.6</speed></trkpt><trkpt lat="43.1238699185895" lon="-2.48103663777273"><ele>591.599980198704</ele><time>2012-05-05T09:58:11Z</time><speed>2.2</speed></trkpt><trkpt lat="43.1238666559586" lon="-2.48110073196636"><ele>592.399971388688</ele><time>2012-05-05T09:58:13Z</time><speed>2.6000001</speed></trkpt><trkpt lat="43.1238615748699" lon="-2.48116836726508"><ele>592.899967513308</ele><time>2012-05-05T09:58:15Z</time><speed>2.3</speed></trkpt><trkpt lat="43.1238597453617" lon="-2.48124032704424"><ele>591.799989189522</ele><time>2012-05-05T09:58:18Z</time><speed>1.4492205</speed></trkpt><trkpt lat="43.1238670131" lon="-2.48131331858596"><ele>592.700001831011</ele><time>2012-05-05T09:58:22Z</time><speed>1.6</speed></trkpt><trkpt lat="43.1238840759751" lon="-2.48137074164074"><ele>595.299994717815</ele><time>2012-05-05T09:58:25Z</time><speed>2.1</speed></trkpt><trkpt lat="43.1239037727344" lon="-2.48143393091981"><ele>595.500000667077</ele><time>2012-05-05T09:58:28Z</time><speed>1.6</speed></trkpt><trkpt lat="43.1239173063788" lon="-2.48150628242558"><ele>595.699999649051</ele><time>2012-05-05T09:58:32Z</time><speed>1.3807787</speed></trkpt><trkpt lat="43.1239291858054" lon="-2.48156650744993"><ele>596.2000110841</ele><time>2012-05-05T09:58:36Z</time><speed>1.4064573</speed></trkpt><trkpt lat="43.1239281376849" lon="-2.48164556937645"><ele>597.200010948617</ele><time>2012-05-05T09:58:40Z</time><speed>1.6</speed></trkpt><trkpt lat="43.1239471835746" lon="-2.48170301570838"><ele>595.900011155195</ele><time>2012-05-05T09:58:44Z</time><speed>1.4294996</speed></trkpt><trkpt lat="43.1239780333083" lon="-2.48175875930573"><ele>593.100014489074</ele><time>2012-05-05T09:58:50Z</time><speed>1.4025173</speed></trkpt><trkpt lat="43.123996492739" lon="-2.48180594196238"><ele>591.600023329644</ele><time>2012-05-05T09:58:54Z</time><speed>1.3874454</speed></trkpt><trkpt lat="43.1240237976196" lon="-2.48186932830412"><ele>586.900029057705</ele><time>2012-05-05T09:58:59Z</time><speed>1.4031638</speed></trkpt><trkpt lat="43.1240487215836" lon="-2.48192801859512"><ele>587.300024474418</ele><time>2012-05-05T09:59:04Z</time><speed>1.409203</speed></trkpt><trkpt lat="43.124055198692" lon="-2.48199002151075"><ele>587.500017206934</ele><time>2012-05-05T09:59:08Z</time><speed>1.3778626</speed></trkpt><trkpt lat="43.1240780826489" lon="-2.48204697217205"><ele>588.099996062689</ele><time>2012-05-05T09:59:12Z</time><speed>1.3667029</speed></trkpt><trkpt lat="43.1241099478509" lon="-2.48211007243158"><ele>588.799989190619</ele><time>2012-05-05T09:59:16Z</time><speed>1.3875363</speed></trkpt><trkpt lat="43.1241497138913" lon="-2.48215939036351"><ele>587.599999682209</ele><time>2012-05-05T09:59:20Z</time><speed>1.4031423</speed></trkpt><trkpt lat="43.1241763186816" lon="-2.48221231093693"><ele>588.200005679735</ele><time>2012-05-05T09:59:24Z</time><speed>1.3659767</speed></trkpt><trkpt lat="43.1242054299255" lon="-2.48226997097618"><ele>588.999991368971</ele><time>2012-05-05T09:59:28Z</time><speed>1.3619051</speed></trkpt><trkpt lat="43.1242286709452" lon="-2.48233356926173"><ele>589.099992792885</ele><time>2012-05-05T09:59:32Z</time><speed>1.3679845</speed></trkpt><trkpt lat="43.1242545673939" lon="-2.48239981776641"><ele>590.599990580231</ele><time>2012-05-05T09:59:35Z</time><speed>1.9</speed></trkpt><trkpt lat="43.1242883476274" lon="-2.48245947306781"><ele>592.499993990223</ele><time>2012-05-05T09:59:39Z</time><speed>1.3462964</speed></trkpt><trkpt lat="43.1243211820486" lon="-2.48250806715752"><ele>593.299993963851</ele><time>2012-05-05T09:59:43Z</time><speed>1.3563138</speed></trkpt><trkpt lat="43.1243422835293" lon="-2.48257646315795"><ele>594.300001090865</ele><time>2012-05-05T09:59:47Z</time><speed>1.7</speed></trkpt><trkpt lat="43.1243542604787" lon="-2.48265136833902"><ele>594.900005217142</ele><time>2012-05-05T09:59:51Z</time><speed>1.6</speed></trkpt><trkpt lat="43.1243726251733" lon="-2.48270466983574"><ele>594.700008394496</ele><time>2012-05-05T09:59:54Z</time><speed>1.6</speed></trkpt><trkpt lat="43.1244019960323" lon="-2.48275842160688"><ele>594.800014575887</ele><time>2012-05-05T09:59:58Z</time><speed>1.6</speed></trkpt><trkpt lat="43.1244294129461" lon="-2.48282087873689"><ele>593.800032476995</ele><time>2012-05-05T10:00:03Z</time><speed>1.3499062</speed></trkpt><trkpt lat="43.1244724497849" lon="-2.48285221551661"><ele>591.400036649518</ele><time>2012-05-05T10:00:09Z</time><speed>1.3067914</speed></trkpt><trkpt lat="43.1244806994694" lon="-2.4829181194555"><ele>593.500006467445</ele><time>2012-05-05T10:00:14Z</time><speed>1.3224655</speed></trkpt><trkpt lat="43.1244886130821" lon="-2.48298024114264"><ele>593.200002487097</ele><time>2012-05-05T10:00:18Z</time><speed>1.3542305</speed></trkpt><trkpt lat="43.12450487922" lon="-2.48305035743972"><ele>594.300014768473</ele><time>2012-05-05T10:00:23Z</time><speed>1.3107212</speed></trkpt><trkpt lat="43.1245484257895" lon="-2.48308789030912"><ele>594.399993464114</ele><time>2012-05-05T10:00:27Z</time><speed>1.315743</speed></trkpt><trkpt lat="43.1245932850213" lon="-2.48311806980789"><ele>594.199974585984</ele><time>2012-05-05T10:00:30Z</time><speed>1.6</speed></trkpt><trkpt lat="43.1246365739911" lon="-2.48314900365619"><ele>594.199988842886</ele><time>2012-05-05T10:00:33Z</time><speed>1.3598468</speed></trkpt><trkpt lat="43.1246711780437" lon="-2.48319239366199"><ele>592.500004214057</ele><time>2012-05-05T10:00:37Z</time><speed>1.3546512</speed></trkpt><trkpt lat="43.1247043102962" lon="-2.48324951197183"><ele>593.400008249155</ele><time>2012-05-05T10:00:42Z</time><speed>1.3833</speed></trkpt><trkpt lat="43.1247321559493" lon="-2.48330489721891"><ele>593.099990607766</ele><time>2012-05-05T10:00:46Z</time><speed>1.3882183</speed></trkpt><trkpt lat="43.1247613817131" lon="-2.48336309303886"><ele>593.099997554212</ele><time>2012-05-05T10:00:50Z</time><speed>1.347039</speed></trkpt><trkpt lat="43.1247948495788" lon="-2.48340205478365"><ele>594.000036742615</ele><time>2012-05-05T10:00:54Z</time><speed>1.3750507</speed></trkpt><trkpt lat="43.124813797637" lon="-2.48347012641251"><ele>595.000010743319</ele><time>2012-05-05T10:00:59Z</time><speed>1.4076828</speed></trkpt><trkpt lat="43.1248306825055" lon="-2.48353242464182"><ele>594.000002689867</ele><time>2012-05-05T10:01:03Z</time><speed>1.3754083</speed></trkpt><trkpt lat="43.12485141408" lon="-2.4835935826636"><ele>594.099998959384</ele><time>2012-05-05T10:01:07Z</time><speed>1.3692645</speed></trkpt><trkpt lat="43.1248740528306" lon="-2.48365568087311"><ele>593.899993818653</ele><time>2012-05-05T10:01:11Z</time><speed>1.3387885</speed></trkpt><trkpt lat="43.1249011924976" lon="-2.48371712554274"><ele>593.49999054314</ele><time>2012-05-05T10:01:15Z</time><speed>1.331047</speed></trkpt><trkpt lat="43.1249296504283" lon="-2.48377344190433"><ele>594.000006268492</ele><time>2012-05-05T10:01:19Z</time><speed>1.401946</speed></trkpt><trkpt lat="43.124950869939" lon="-2.48383007502676"><ele>594.200008843397</ele><time>2012-05-05T10:01:23Z</time><speed>1.3728157</speed></trkpt><trkpt lat="43.1249730271614" lon="-2.48388424918136"><ele>593.299975458327</ele><time>2012-05-05T10:01:26Z</time><speed>1.7</speed></trkpt><trkpt lat="43.1250088358978" lon="-2.48394266603473"><ele>594.099986089558</ele><time>2012-05-05T10:01:30Z</time><speed>1.3643419</speed></trkpt><trkpt lat="43.1250429169438" lon="-2.48399497722788"><ele>594.099994605045</ele><time>2012-05-05T10:01:34Z</time><speed>1.4065248</speed></trkpt><trkpt lat="43.1250817983426" lon="-2.48403920865303"><ele>593.400007340519</ele><time>2012-05-05T10:01:38Z</time><speed>1.3631655</speed></trkpt><trkpt lat="43.1251182464065" lon="-2.48408369582959"><ele>593.90000109947</ele><time>2012-05-05T10:01:42Z</time><speed>1.3683652</speed></trkpt><trkpt lat="43.1251559768412" lon="-2.48412922043647"><ele>594.1000080092</ele><time>2012-05-05T10:01:46Z</time><speed>1.4059379</speed></trkpt><trkpt lat="43.1251977632586" lon="-2.48416685502945"><ele>593.900003515103</ele><time>2012-05-05T10:01:50Z</time><speed>1.4318495</speed></trkpt><trkpt lat="43.1252457000856" lon="-2.48420264203612"><ele>593.799978358323</ele><time>2012-05-05T10:01:54Z</time><speed>1.4065036</speed></trkpt><trkpt lat="43.125288178631" lon="-2.48423079291129"><ele>590.999982745159</ele><time>2012-05-05T10:01:57Z</time><speed>1.4021823</speed></trkpt><trkpt lat="43.1253384055109" lon="-2.4842354810883"><ele>592.199989133913</ele><time>2012-05-05T10:02:00Z</time><speed>1.3909005</speed></trkpt><trkpt lat="43.1253955627438" lon="-2.48423136614034"><ele>594.000005610632</ele><time>2012-05-05T10:02:04Z</time><speed>1.2420826</speed></trkpt><trkpt lat="43.1253904248841" lon="-2.48420958924549"><ele>594.900027331847</ele><time>2012-05-05T10:02:54Z</time><speed>0.0</speed></trkpt><trkpt lat="43.12543814" lon="-2.48423056"><ele>592.0</ele><time>2012-05-05T10:03:23Z</time><speed>1.2</speed></trkpt><trkpt lat="43.12546101" lon="-2.4842907"><ele>592.9</ele><time>2012-05-05T10:03:27Z</time><speed>1.5</speed></trkpt><trkpt lat="43.12547536" lon="-2.48434966"><ele>593.1</ele><time>2012-05-05T10:03:30Z</time><speed>1.5</speed></trkpt><trkpt lat="43.12550985" lon="-2.48439275"><ele>592.5</ele><time>2012-05-05T10:03:34Z</time><speed>1.3000001</speed></trkpt><trkpt lat="43.12555429" lon="-2.48443565"><ele>595.3</ele><time>2012-05-05T10:03:39Z</time><speed>1.2</speed></trkpt><trkpt lat="43.12558771" lon="-2.48448609"><ele>594.2</ele><time>2012-05-05T10:03:43Z</time><speed>1.6</speed></trkpt><trkpt lat="43.12562027" lon="-2.48455137"><ele>594.7</ele><time>2012-05-05T10:03:47Z</time><speed>1.3000001</speed></trkpt><trkpt lat="43.12565329" lon="-2.48459963"><ele>595.4</ele><time>2012-05-05T10:03:51Z</time><speed>1.2</speed></trkpt><trkpt lat="43.12567483" lon="-2.48464369"><ele>596.5</ele><time>2012-05-05T10:03:54Z</time><speed>1.4000001</speed></trkpt><trkpt lat="43.12569672" lon="-2.48470691"><ele>597.7</ele><time>2012-05-05T10:03:58Z</time><speed>1.0</speed></trkpt><trkpt lat="43.12570368" lon="-2.48478145"><ele>599.6</ele><time>2012-05-05T10:04:03Z</time><speed>1.4000001</speed></trkpt><trkpt lat="43.12569227" lon="-2.48485062"><ele>600.7</ele><time>2012-05-05T10:04:07Z</time><speed>1.5</speed></trkpt><trkpt lat="43.12568862" lon="-2.48491277"><ele>601.300000000331</ele><time>2012-05-05T10:04:12Z</time><speed>1.5233003</speed></trkpt><trkpt lat="43.1257024548911" lon="-2.48490288097389"><ele>601.800000179987</ele><time>2012-05-05T10:04:54Z</time><speed>0.0</speed></trkpt><trkpt lat="43.12565536" lon="-2.48493595"><ele>598.9</ele><time>2012-05-05T10:13:40Z</time><speed>1.1</speed></trkpt><trkpt lat="43.12561273" lon="-2.48496587"><ele>598.700000000198</ele><time>2012-05-05T10:13:45Z</time><speed>1.249239</speed></trkpt><trkpt lat="43.1255662628885" lon="-2.48499762529552"><ele>599.900000313953</ele><time>2012-05-05T10:13:51Z</time><speed>1.1796314</speed></trkpt><trkpt lat="43.1255419649148" lon="-2.48501908580204"><ele>600.600000127027</ele><time>2012-05-05T10:13:54Z</time><speed>1.1905128</speed></trkpt><trkpt lat="43.1255058264391" lon="-2.48507347330908"><ele>601.600000027115</ele><time>2012-05-05T10:13:59Z</time><speed>1.159669</speed></trkpt><trkpt lat="43.1254675330089" lon="-2.48512508573425"><ele>601.800000018534</ele><time>2012-05-05T10:14:05Z</time><speed>1.1181089</speed></trkpt><trkpt lat="43.1254268634336" lon="-2.4851733738928"><ele>601.600000400923</ele><time>2012-05-05T10:14:11Z</time><speed>1.0523554</speed></trkpt><trkpt lat="43.1253915584736" lon="-2.48521764185227"><ele>602.000000270672</ele><time>2012-05-05T10:14:16Z</time><speed>1.1874189</speed></trkpt><trkpt lat="43.125356605896" lon="-2.48525736904853"><ele>601.200001915154</ele><time>2012-05-05T10:14:21Z</time><speed>1.441304</speed></trkpt><trkpt lat="43.1253193606411" lon="-2.48530299189425"><ele>601.100000516926</ele><time>2012-05-05T10:14:26Z</time><speed>1.242969</speed></trkpt><trkpt lat="43.1252906540238" lon="-2.48535658446021"><ele>601.700002267773</ele><time>2012-05-05T10:14:31Z</time><speed>1.1728909</speed></trkpt><trkpt lat="43.1252655550682" lon="-2.48541130172325"><ele>601.200002710672</ele><time>2012-05-05T10:14:38Z</time><speed>1.0667325</speed></trkpt><trkpt lat="43.1252340008719" lon="-2.48545753057912"><ele>602.599999107944</ele><time>2012-05-05T10:14:43Z</time><speed>1.0187893</speed></trkpt><trkpt lat="43.1252037975011" lon="-2.48551446352743"><ele>602.200001483554</ele><time>2012-05-05T10:14:48Z</time><speed>1.221251</speed></trkpt><trkpt lat="43.1251912939049" lon="-2.48557663832497"><ele>603.300003311383</ele><time>2012-05-05T10:14:54Z</time><speed>1.1963576</speed></trkpt><trkpt lat="43.1251783173047" lon="-2.4856430439105"><ele>604.100002690413</ele><time>2012-05-05T10:15:00Z</time><speed>1.0280236</speed></trkpt><trkpt lat="43.1251569045346" lon="-2.48570587741892"><ele>605.100001805792</ele><time>2012-05-05T10:15:06Z</time><speed>1.1632482</speed></trkpt><trkpt lat="43.125152271109" lon="-2.48576811614172"><ele>606.200003071685</ele><time>2012-05-05T10:15:11Z</time><speed>1.221973</speed></trkpt><trkpt lat="43.1251335638732" lon="-2.48582919775678"><ele>607.499994584424</ele><time>2012-05-05T10:15:15Z</time><speed>1.1617242</speed></trkpt><trkpt lat="43.1251151835766" lon="-2.48590779495289"><ele>608.899992411999</ele><time>2012-05-05T10:15:19Z</time><speed>1.5</speed></trkpt><trkpt lat="43.125146214653" lon="-2.48595779685549"><ele>605.600000017127</ele><time>2012-05-05T10:15:48Z</time><speed>1.208615</speed></trkpt><trkpt lat="43.1251524740349" lon="-2.4859516151604"><ele>606.700000105827</ele><time>2012-05-05T10:15:54Z</time><speed>0.6960791</speed></trkpt><trkpt lat="43.12514127" lon="-2.48594725"><ele>608.1</ele><time>2012-05-05T10:16:54Z</time><speed>0.0</speed></trkpt><trkpt lat="43.12513306" lon="-2.48595419"><ele>609.7</ele><time>2012-05-05T10:17:54Z</time><speed>0.0</speed></trkpt><trkpt lat="43.12515374" lon="-2.48593363"><ele>608.6</ele><time>2012-05-05T10:18:53Z</time><speed>0.0</speed></trkpt><trkpt lat="43.12519581" lon="-2.48596292"><ele>609.3</ele><time>2012-05-05T10:19:36Z</time><speed>1.0</speed></trkpt><trkpt lat="43.1252419417879" lon="-2.48596877879192"><ele>611.200000088513</ele><time>2012-05-05T10:19:42Z</time><speed>1.2635164</speed></trkpt><trkpt lat="43.1252888081778" lon="-2.48598607283959"><ele>613.000000836398</ele><time>2012-05-05T10:19:48Z</time><speed>1.1571994</speed></trkpt><trkpt lat="43.1253242642949" lon="-2.48602398895481"><ele>614.100000244264</ele><time>2012-05-05T10:19:53Z</time><speed>1.2030909</speed></trkpt><trkpt lat="43.1253536710338" lon="-2.48607796550488"><ele>615.500000445681</ele><time>2012-05-05T10:19:58Z</time><speed>1.0869974</speed></trkpt><trkpt lat="43.1254049821123" lon="-2.48606466726108"><ele>618.30000015202</ele><time>2012-05-05T10:20:05Z</time><speed>0.9729745</speed></trkpt><trkpt lat="43.1254520211354" lon="-2.48603547516229"><ele>619.400000430972</ele><time>2012-05-05T10:20:11Z</time><speed>1.085818</speed></trkpt><trkpt lat="43.1254860320381" lon="-2.48599482853315"><ele>619.100000381879</ele><time>2012-05-05T10:20:16Z</time><speed>1.0426157</speed></trkpt><trkpt lat="43.1255274022453" lon="-2.48595921142975"><ele>619.599999441016</ele><time>2012-05-05T10:20:21Z</time><speed>1.1432271</speed></trkpt><trkpt lat="43.125578514737" lon="-2.4859382305201"><ele>620.500001111151</ele><time>2012-05-05T10:20:27Z</time><speed>1.1020508</speed></trkpt><trkpt lat="43.125628494378" lon="-2.48591886503248"><ele>621.200001419089</ele><time>2012-05-05T10:20:33Z</time><speed>1.0793871</speed></trkpt><trkpt lat="43.1256823805338" lon="-2.48591350206381"><ele>620.700000023053</ele><time>2012-05-05T10:20:39Z</time><speed>1.06996</speed></trkpt><trkpt lat="43.1257307597201" lon="-2.48590813820505"><ele>622.100001814859</ele><time>2012-05-05T10:20:45Z</time><speed>1.1429789</speed></trkpt><trkpt lat="43.1257809317555" lon="-2.48590132593485"><ele>621.799999192065</ele><time>2012-05-05T10:20:50Z</time><speed>1.1932975</speed></trkpt><trkpt lat="43.125807521542" lon="-2.48589429854844"><ele>624.30000222479</ele><time>2012-05-05T10:20:53Z</time><speed>1.2065693</speed></trkpt><trkpt lat="43.1258579592606" lon="-2.48590375475024"><ele>627.000000505995</ele><time>2012-05-05T10:20:59Z</time><speed>1.1019527</speed></trkpt><trkpt lat="43.1259056894037" lon="-2.48591527232113"><ele>628.200002560827</ele><time>2012-05-05T10:21:04Z</time><speed>1.1872071</speed></trkpt><trkpt lat="43.1259505933664" lon="-2.48592538612697"><ele>628.200000961408</ele><time>2012-05-05T10:21:09Z</time><speed>1.1270407</speed></trkpt><trkpt lat="43.1259986639886" lon="-2.48593094860764"><ele>630.100001591598</ele><time>2012-05-05T10:21:14Z</time><speed>1.1853229</speed></trkpt><trkpt lat="43.1260468052396" lon="-2.48593228986509"><ele>631.700006553675</ele><time>2012-05-05T10:21:21Z</time><speed>1.1196295</speed></trkpt><trkpt lat="43.1260989292504" lon="-2.48593661461066"><ele>632.20000138904</ele><time>2012-05-05T10:21:27Z</time><speed>1.3127952</speed></trkpt><trkpt lat="43.1261456738666" lon="-2.48594995775198"><ele>633.500000103561</ele><time>2012-05-05T10:21:32Z</time><speed>1.000132</speed></trkpt><trkpt lat="43.1261936949711" lon="-2.48595682946311"><ele>633.900003268346</ele><time>2012-05-05T10:21:37Z</time><speed>1.1211772</speed></trkpt><trkpt lat="43.126229845322" lon="-2.48594734456404"><ele>632.100036189191</ele><time>2012-05-05T10:21:53Z</time><speed>1.2073245</speed></trkpt><trkpt lat="43.1262842213791" lon="-2.48596650977579"><ele>631.699997527344</ele><time>2012-05-05T10:22:00Z</time><speed>1.1833024</speed></trkpt><trkpt lat="43.1263312648971" lon="-2.48598447661636"><ele>631.799995627984</ele><time>2012-05-05T10:22:04Z</time><speed>1.0887765</speed></trkpt><trkpt lat="43.1263742226973" lon="-2.48602223690542"><ele>632.600005959268</ele><time>2012-05-05T10:22:10Z</time><speed>1.1595172</speed></trkpt><trkpt lat="43.1264114537719" lon="-2.48606688075775"><ele>634.300001886951</ele><time>2012-05-05T10:22:15Z</time><speed>1.0780591</speed></trkpt><trkpt lat="43.126451586566" lon="-2.48611162511698"><ele>634.700000456652</ele><time>2012-05-05T10:22:20Z</time><speed>1.1493045</speed></trkpt><trkpt lat="43.1264885935797" lon="-2.48614956427587"><ele>634.199997960484</ele><time>2012-05-05T10:22:24Z</time><speed>1.1660092</speed></trkpt><trkpt lat="43.1265300225916" lon="-2.48619291267803"><ele>634.699999579125</ele><time>2012-05-05T10:22:29Z</time><speed>1.1132118</speed></trkpt><trkpt lat="43.1265623432574" lon="-2.48624115902894"><ele>635.299999478973</ele><time>2012-05-05T10:22:34Z</time><speed>1.1022553</speed></trkpt><trkpt lat="43.126591615311" lon="-2.48624815311918"><ele>633.500037107658</ele><time>2012-05-05T10:22:53Z</time><speed>0.0</speed></trkpt><trkpt lat="43.1265428402676" lon="-2.48625261089403"><ele>633.899991856342</ele><time>2012-05-05T10:23:16Z</time><speed>1.9353592</speed></trkpt><trkpt lat="43.1265553570797" lon="-2.48631673805386"><ele>633.199989784842</ele><time>2012-05-05T10:23:23Z</time><speed>1.0381001</speed></trkpt><trkpt lat="43.1265870405924" lon="-2.48636338201752"><ele>632.799982920026</ele><time>2012-05-05T10:23:28Z</time><speed>0.9408838</speed></trkpt><trkpt lat="43.1266190607746" lon="-2.48641946268019"><ele>632.900006259323</ele><time>2012-05-05T10:23:36Z</time><speed>1.1003902</speed></trkpt><trkpt lat="43.1266147292389" lon="-2.48648080144476"><ele>635.100015319145</ele><time>2012-05-05T10:23:44Z</time><speed>1.0747508</speed></trkpt><trkpt lat="43.126651146805" lon="-2.48651732000563"><ele>635.599998891263</ele><time>2012-05-05T10:23:51Z</time><speed>0.95279056</speed></trkpt><trkpt lat="43.1266603415703" lon="-2.48653202458597"><ele>635.90000357859</ele><time>2012-05-05T10:23:53Z</time><speed>0.97247344</speed></trkpt><trkpt lat="43.1266623668221" lon="-2.48659504357123"><ele>638.900005545924</ele><time>2012-05-05T10:24:01Z</time><speed>1.0562139</speed></trkpt><trkpt lat="43.126673351512" lon="-2.48665923294962"><ele>640.200015738397</ele><time>2012-05-05T10:24:09Z</time><speed>0.9986379</speed></trkpt><trkpt lat="43.1266959629232" lon="-2.48672371304918"><ele>640.19999936188</ele><time>2012-05-05T10:24:15Z</time><speed>1.0588223</speed></trkpt><trkpt lat="43.1267343044807" lon="-2.48675716775544"><ele>642.600005109489</ele><time>2012-05-05T10:24:20Z</time><speed>1.0641872</speed></trkpt><trkpt lat="43.1267835780616" lon="-2.48675164152445"><ele>642.00000720244</ele><time>2012-05-05T10:24:28Z</time><speed>1.3182302</speed></trkpt><trkpt lat="43.1268303671461" lon="-2.48675970008967"><ele>641.600011914154</ele><time>2012-05-05T10:24:36Z</time><speed>1.2624065</speed></trkpt><trkpt lat="43.1267861366531" lon="-2.48679441292589"><ele>643.000001371294</ele><time>2012-05-05T10:24:50Z</time><speed>1.1042795</speed></trkpt><trkpt lat="43.1267588316871" lon="-2.48680187370282"><ele>643.700000982636</ele><time>2012-05-05T10:24:53Z</time><speed>1.0895418</speed></trkpt><trkpt lat="43.1267050496896" lon="-2.48680686567584"><ele>644.999998846254</ele><time>2012-05-05T10:24:59Z</time><speed>1.0909321</speed></trkpt><trkpt lat="43.1266544800778" lon="-2.48681483413982"><ele>645.799994667596</ele><time>2012-05-05T10:25:05Z</time><speed>1.0640912</speed></trkpt><trkpt lat="43.1266034594209" lon="-2.48682630474684"><ele>648.499992531347</ele><time>2012-05-05T10:25:11Z</time><speed>1.3602039</speed></trkpt><trkpt lat="43.1265553703733" lon="-2.48682881959868"><ele>648.799997072249</ele><time>2012-05-05T10:25:17Z</time><speed>1.1062145</speed></trkpt><trkpt lat="43.1265055778697" lon="-2.4868471759598"><ele>650.299998635497</ele><time>2012-05-05T10:25:24Z</time><speed>1.0861224</speed></trkpt><trkpt lat="43.1264667674646" lon="-2.48688859874057"><ele>650.100000643326</ele><time>2012-05-05T10:25:30Z</time><speed>1.0512754</speed></trkpt><trkpt lat="43.1264254867945" lon="-2.48693222778765"><ele>652.400001576705</ele><time>2012-05-05T10:25:36Z</time><speed>1.0553389</speed></trkpt><trkpt lat="43.1263960166908" lon="-2.48698535839631"><ele>652.700002814254</ele><time>2012-05-05T10:25:42Z</time><speed>0.99244946</speed></trkpt><trkpt lat="43.1263989669618" lon="-2.48699538355313"><ele>653.400005663325</ele><time>2012-05-05T10:25:54Z</time><speed>0.0</speed></trkpt><trkpt lat="43.1263993801375" lon="-2.48698112359548"><ele>653.8000115415</ele><time>2012-05-05T10:26:54Z</time><speed>0.0</speed></trkpt><trkpt lat="43.12643723" lon="-2.487015"><ele>655.6</ele><time>2012-05-05T10:27:28Z</time><speed>0.0</speed></trkpt><trkpt lat="43.1264670035574" lon="-2.48706200551877"><ele>656.000000153499</ele><time>2012-05-05T10:27:40Z</time><speed>1.0399752</speed></trkpt><trkpt lat="43.1264818204228" lon="-2.48712562025719"><ele>657.399999958329</ele><time>2012-05-05T10:27:45Z</time><speed>1.0451971</speed></trkpt><trkpt lat="43.1265099694352" lon="-2.48718554773249"><ele>658.800000550945</ele><time>2012-05-05T10:27:52Z</time><speed>1.1102806</speed></trkpt><trkpt lat="43.1265205806773" lon="-2.48720297028927"><ele>659.200000639857</ele><time>2012-05-05T10:27:54Z</time><speed>1.1286753</speed></trkpt><trkpt lat="43.1265531621403" lon="-2.48725580958928"><ele>663.000000592738</ele><time>2012-05-05T10:28:09Z</time><speed>0.93900055</speed></trkpt><trkpt lat="43.1265452538167" lon="-2.48728327320953"><ele>660.800000545998</ele><time>2012-05-05T10:28:54Z</time><speed>0.0</speed></trkpt><trkpt lat="43.1265441789792" lon="-2.48728705442575"><ele>660.600000117292</ele><time>2012-05-05T10:32:54Z</time><speed>0.0</speed></trkpt><trkpt lat="43.12651878" lon="-2.48729413"><ele>660.0</ele><time>2012-05-05T10:33:54Z</time><speed>0.0</speed></trkpt><trkpt lat="43.12651851" lon="-2.48729338"><ele>660.0</ele><time>2012-05-05T10:34:54Z</time><speed>0.0</speed></trkpt><trkpt lat="43.12658719" lon="-2.48730042"><ele>658.7</ele><time>2012-05-05T10:35:16Z</time><speed>4.3</speed></trkpt><trkpt lat="43.12663894" lon="-2.48730398"><ele>658.3</ele><time>2012-05-05T10:35:18Z</time><speed>2.6000001</speed></trkpt><trkpt lat="43.12669842" lon="-2.48729784"><ele>658.4</ele><time>2012-05-05T10:35:21Z</time><speed>2.5</speed></trkpt><trkpt lat="43.12664277" lon="-2.48728997"><ele>659.2</ele><time>2012-05-05T10:35:25Z</time><speed>0.0</speed></trkpt><trkpt lat="43.12658929" lon="-2.48728887"><ele>661.7</ele><time>2012-05-05T10:35:26Z</time><speed>0.0</speed></trkpt><trkpt lat="43.12654226" lon="-2.48729393"><ele>661.4</ele><time>2012-05-05T10:35:28Z</time><speed>0.0</speed></trkpt><trkpt lat="43.12651936" lon="-2.48728486"><ele>662.9</ele><time>2012-05-05T10:35:54Z</time><speed>0.0</speed></trkpt><trkpt lat="43.12652165" lon="-2.48729071"><ele>663.1</ele><time>2012-05-05T10:36:54Z</time><speed>0.0</speed></trkpt><trkpt lat="43.12657258" lon="-2.48728924"><ele>662.5</ele><time>2012-05-05T10:37:34Z</time><speed>1.4000001</speed></trkpt><trkpt lat="43.12661829" lon="-2.487312"><ele>661.4</ele><time>2012-05-05T10:37:38Z</time><speed>0.8</speed></trkpt><trkpt lat="43.12662912" lon="-2.48737595"><ele>662.0</ele><time>2012-05-05T10:37:42Z</time><speed>1.2</speed></trkpt><trkpt lat="43.12663515" lon="-2.48743914"><ele>663.4</ele><time>2012-05-05T10:37:46Z</time><speed>1.0</speed></trkpt><trkpt lat="43.12665242" lon="-2.48750274"><ele>664.0</ele><time>2012-05-05T10:37:51Z</time><speed>0.8</speed></trkpt><trkpt lat="43.12666306" lon="-2.4875351"><ele>664.3</ele><time>2012-05-05T10:37:54Z</time><speed>1.0</speed></trkpt><trkpt lat="43.12668141" lon="-2.48759722"><ele>665.2</ele><time>2012-05-05T10:38:00Z</time><speed>0.8</speed></trkpt><trkpt lat="43.12669433" lon="-2.48766363"><ele>665.2</ele><time>2012-05-05T10:38:06Z</time><speed>0.9</speed></trkpt><trkpt lat="43.12670392" lon="-2.48772993"><ele>665.0</ele><time>2012-05-05T10:38:11Z</time><speed>1.2</speed></trkpt><trkpt lat="43.12673681" lon="-2.4877847"><ele>664.6</ele><time>2012-05-05T10:38:16Z</time><speed>1.0</speed></trkpt><trkpt lat="43.12675392" lon="-2.48784829"><ele>664.4</ele><time>2012-05-05T10:38:21Z</time><speed>1.0</speed></trkpt><trkpt lat="43.12674628" lon="-2.48791897"><ele>664.2</ele><time>2012-05-05T10:38:25Z</time><speed>1.2</speed></trkpt><trkpt lat="43.12674059" lon="-2.4879869"><ele>664.1</ele><time>2012-05-05T10:38:29Z</time><speed>1.1</speed></trkpt><trkpt lat="43.12675196" lon="-2.48805976"><ele>664.0</ele><time>2012-05-05T10:38:33Z</time><speed>1.3000001</speed></trkpt><trkpt lat="43.12677603" lon="-2.48811383"><ele>663.0</ele><time>2012-05-05T10:38:37Z</time><speed>1.3000001</speed></trkpt><trkpt lat="43.12680634" lon="-2.4881646"><ele>663.2</ele><time>2012-05-05T10:38:41Z</time><speed>1.0</speed></trkpt><trkpt lat="43.12684714" lon="-2.48819272"><ele>663.9</ele><time>2012-05-05T10:38:46Z</time><speed>1.1</speed></trkpt><trkpt lat="43.12688904" lon="-2.48816526"><ele>663.8</ele><time>2012-05-05T10:38:50Z</time><speed>0.70000005</speed></trkpt><trkpt lat="43.1269183084056" lon="-2.48813737209086"><ele>664.700000090263</ele><time>2012-05-05T10:38:54Z</time><speed>1.0723429</speed></trkpt><trkpt lat="43.1269601317768" lon="-2.48810126054053"><ele>664.100000666002</ele><time>2012-05-05T10:39:01Z</time><speed>1.0936524</speed></trkpt><trkpt lat="43.12699840346" lon="-2.48805823015181"><ele>663.400001084452</ele><time>2012-05-05T10:39:08Z</time><speed>1.2202736</speed></trkpt><trkpt lat="43.1270413316456" lon="-2.48803389431407"><ele>663.400001683008</ele><time>2012-05-05T10:39:17Z</time><speed>1.2411779</speed></trkpt><trkpt lat="43.1270305703157" lon="-2.48796592609626"><ele>662.400002652434</ele><time>2012-05-05T10:39:27Z</time><speed>1.3174555</speed></trkpt><trkpt lat="43.1270093382611" lon="-2.48790607675438"><ele>662.600000233465</ele><time>2012-05-05T10:39:31Z</time><speed>1.2850975</speed></trkpt><trkpt lat="43.1270046241408" lon="-2.48783696262192"><ele>662.89999870479</ele><time>2012-05-05T10:39:35Z</time><speed>1.302313</speed></trkpt><trkpt lat="43.1270097889608" lon="-2.48776383853534"><ele>663.400002091956</ele><time>2012-05-05T10:39:40Z</time><speed>1.3153037</speed></trkpt><trkpt lat="43.1270019041929" lon="-2.48769124219442"><ele>662.100001811495</ele><time>2012-05-05T10:39:46Z</time><speed>1.3164537</speed></trkpt><trkpt lat="43.1270012003615" lon="-2.48762821302772"><ele>659.000004033117</ele><time>2012-05-05T10:39:51Z</time><speed>1.4985505</speed></trkpt><trkpt lat="43.1269983618509" lon="-2.48758788297392"><ele>658.700004867729</ele><time>2012-05-05T10:39:54Z</time><speed>1.3747249</speed></trkpt><trkpt lat="43.1269966955786" lon="-2.4875263010372"><ele>657.700004608549</ele><time>2012-05-05T10:39:59Z</time><speed>1.6877179</speed></trkpt><trkpt lat="43.1269869852871" lon="-2.48745971780723"><ele>652.499997586376</ele><time>2012-05-05T10:40:20Z</time><speed>0.89901394</speed></trkpt><trkpt lat="43.1269855296453" lon="-2.48739167733383"><ele>652.499998503918</ele><time>2012-05-05T10:40:25Z</time><speed>1.1904011</speed></trkpt><trkpt lat="43.126975090182" lon="-2.4873287587506"><ele>651.800002970814</ele><time>2012-05-05T10:40:30Z</time><speed>1.1612955</speed></trkpt><trkpt lat="43.1269956522487" lon="-2.48727160138568"><ele>653.299992448422</ele><time>2012-05-05T10:40:35Z</time><speed>1.5</speed></trkpt><trkpt lat="43.1270004860692" lon="-2.48719941655355"><ele>653.099996860025</ele><time>2012-05-05T10:40:39Z</time><speed>1.2318782</speed></trkpt><trkpt lat="43.1269679597269" lon="-2.48713767079541"><ele>656.499999820401</ele><time>2012-05-05T10:40:43Z</time><speed>1.257358</speed></trkpt><trkpt lat="43.1269395281585" lon="-2.48707557203977"><ele>654.400004586998</ele><time>2012-05-05T10:40:48Z</time><speed>1.2519703</speed></trkpt><trkpt lat="43.1269110858498" lon="-2.48701561158163"><ele>651.700005791623</ele><time>2012-05-05T10:40:54Z</time><speed>1.2967072</speed></trkpt><trkpt lat="43.1268909939209" lon="-2.486952846856"><ele>650.800004505567</ele><time>2012-05-05T10:41:00Z</time><speed>1.2339293</speed></trkpt><trkpt lat="43.1268782557067" lon="-2.48689327374244"><ele>647.300011851024</ele><time>2012-05-05T10:41:06Z</time><speed>1.4138741</speed></trkpt><trkpt lat="43.1268726871692" lon="-2.48682809951115"><ele>645.200008360044</ele><time>2012-05-05T10:41:13Z</time><speed>1.3152843</speed></trkpt><trkpt lat="43.1269210974902" lon="-2.48683840608822"><ele>646.200001461628</ele><time>2012-05-05T10:41:24Z</time><speed>1.2282987</speed></trkpt><trkpt lat="43.1269473808449" lon="-2.48688914322243"><ele>646.90000235502</ele><time>2012-05-05T10:41:28Z</time><speed>1.1518751</speed></trkpt><trkpt lat="43.1269663168483" lon="-2.48694812537764"><ele>646.800002204832</ele><time>2012-05-05T10:41:32Z</time><speed>1.2394493</speed></trkpt><trkpt lat="43.1269938654009" lon="-2.48701295019014"><ele>646.300007421063</ele><time>2012-05-05T10:41:38Z</time><speed>1.1567166</speed></trkpt><trkpt lat="43.1270158289418" lon="-2.4870718323238"><ele>646.300006600227</ele><time>2012-05-05T10:41:42Z</time><speed>1.2122965</speed></trkpt><trkpt lat="43.1270431875406" lon="-2.48713435984447"><ele>646.500000536961</ele><time>2012-05-05T10:41:47Z</time><speed>1.163513</speed></trkpt><trkpt lat="43.127070861383" lon="-2.48719486968388"><ele>647.699992912688</ele><time>2012-05-05T10:41:53Z</time><speed>1.1782565</speed></trkpt><trkpt lat="43.1270750972165" lon="-2.48720712331671"><ele>647.499994759684</ele><time>2012-05-05T10:41:54Z</time><speed>1.1456354</speed></trkpt><trkpt lat="43.1270964752589" lon="-2.48726883679968"><ele>647.000000366427</ele><time>2012-05-05T10:41:59Z</time><speed>1.2534627</speed></trkpt><trkpt lat="43.1271266971985" lon="-2.4873300695331"><ele>647.500000688251</ele><time>2012-05-05T10:42:04Z</time><speed>1.2430557</speed></trkpt><trkpt lat="43.1271601551138" lon="-2.48738531147724"><ele>647.699993329021</ele><time>2012-05-05T10:42:09Z</time><speed>1.246161</speed></trkpt><trkpt lat="43.1272020486228" lon="-2.48743726932415"><ele>647.499996447246</ele><time>2012-05-05T10:42:14Z</time><speed>1.2538005</speed></trkpt><trkpt lat="43.1272316183844" lon="-2.48749225513826"><ele>648.400000230724</ele><time>2012-05-05T10:42:18Z</time><speed>1.3067871</speed></trkpt><trkpt lat="43.127258046152" lon="-2.48754786950999"><ele>647.800001716445</ele><time>2012-05-05T10:42:22Z</time><speed>1.2430129</speed></trkpt><trkpt lat="43.1272862190125" lon="-2.48759879125235"><ele>648.700001242934</ele><time>2012-05-05T10:42:26Z</time><speed>1.2451226</speed></trkpt><trkpt lat="43.1273041657173" lon="-2.4876554651757"><ele>650.700002746649</ele><time>2012-05-05T10:42:30Z</time><speed>1.2380604</speed></trkpt><trkpt lat="43.127326734909" lon="-2.48771245712969"><ele>652.300002482868</ele><time>2012-05-05T10:42:35Z</time><speed>1.2897834</speed></trkpt><trkpt lat="43.1273592731109" lon="-2.48776982130047"><ele>652.000001600833</ele><time>2012-05-05T10:42:40Z</time><speed>1.291419</speed></trkpt><trkpt lat="43.127387456514" lon="-2.48782070725397"><ele>653.300002567479</ele><time>2012-05-05T10:42:44Z</time><speed>1.334802</speed></trkpt><trkpt lat="43.1274280847251" lon="-2.48786218805563"><ele>652.99999172379</ele><time>2012-05-05T10:42:48Z</time><speed>1.2688459</speed></trkpt><trkpt lat="43.1274671735943" lon="-2.48790446821142"><ele>654.09998976065</ele><time>2012-05-05T10:42:52Z</time><speed>1.3058321</speed></trkpt><trkpt lat="43.1274834848985" lon="-2.4879288678585"><ele>654.69999683926</ele><time>2012-05-05T10:42:54Z</time><speed>1.3074222</speed></trkpt><trkpt lat="43.1275144395688" lon="-2.48798268387644"><ele>654.000003813279</ele><time>2012-05-05T10:42:58Z</time><speed>1.242055</speed></trkpt><trkpt lat="43.1275473182634" lon="-2.48803182648619"><ele>655.50002320138</ele><time>2012-05-05T10:43:03Z</time><speed>1.2804749</speed></trkpt><trkpt lat="43.1275638044293" lon="-2.48809180216766"><ele>656.600004111185</ele><time>2012-05-05T10:43:07Z</time><speed>1.5</speed></trkpt><trkpt lat="43.1275981033381" lon="-2.48814374692853"><ele>655.000001483586</ele><time>2012-05-05T10:43:11Z</time><speed>1.2654182</speed></trkpt><trkpt lat="43.1276416131747" lon="-2.48817374716963"><ele>655.099998627256</ele><time>2012-05-05T10:43:15Z</time><speed>1.3138182</speed></trkpt><trkpt lat="43.1276770834581" lon="-2.48822628785647"><ele>658.900005581901</ele><time>2012-05-05T10:43:23Z</time><speed>1.2254732</speed></trkpt><trkpt lat="43.127723143892" lon="-2.48826343349962"><ele>659.099995237798</ele><time>2012-05-05T10:43:27Z</time><speed>1.2268813</speed></trkpt><trkpt lat="43.1277699545002" lon="-2.48830121839378"><ele>657.500002160395</ele><time>2012-05-05T10:43:32Z</time><speed>1.2929853</speed></trkpt><trkpt lat="43.1278144892607" lon="-2.48833276967295"><ele>657.800001020101</ele><time>2012-05-05T10:43:37Z</time><speed>1.1945053</speed></trkpt><trkpt lat="43.1278554823686" lon="-2.48837082466979"><ele>660.100002063518</ele><time>2012-05-05T10:43:42Z</time><speed>1.2618842</speed></trkpt><trkpt lat="43.1278993280272" lon="-2.48841778242072"><ele>660.499997612643</ele><time>2012-05-05T10:43:47Z</time><speed>1.1902944</speed></trkpt><trkpt lat="43.1279380521803" lon="-2.48846067961908"><ele>662.200000211343</ele><time>2012-05-05T10:43:51Z</time><speed>1.2679509</speed></trkpt><trkpt lat="43.1279585113736" lon="-2.48849712410137"><ele>663.400003150443</ele><time>2012-05-05T10:43:54Z</time><speed>1.2666138</speed></trkpt><trkpt lat="43.1279978913112" lon="-2.48853222863841"><ele>661.799999225429</ele><time>2012-05-05T10:43:58Z</time><speed>1.3404704</speed></trkpt><trkpt lat="43.1280381120091" lon="-2.48856639476308"><ele>661.400001232568</ele><time>2012-05-05T10:44:02Z</time><speed>1.3339998</speed></trkpt><trkpt lat="43.1280828230227" lon="-2.48860819325311"><ele>662.200001916641</ele><time>2012-05-05T10:44:07Z</time><speed>1.2953371</speed></trkpt><trkpt lat="43.1281207754088" lon="-2.48865303990735"><ele>662.800005952526</ele><time>2012-05-05T10:44:12Z</time><speed>1.3214167</speed></trkpt><trkpt lat="43.12815594248" lon="-2.48870356796655"><ele>665.40000616543</ele><time>2012-05-05T10:44:17Z</time><speed>1.1913344</speed></trkpt><trkpt lat="43.1281941942356" lon="-2.48874171895599"><ele>663.600008593098</ele><time>2012-05-05T10:44:24Z</time><speed>1.6184288</speed></trkpt><trkpt lat="43.1282364816909" lon="-2.48876845776007"><ele>663.000017171548</ele><time>2012-05-05T10:44:36Z</time><speed>1.0448592</speed></trkpt><trkpt lat="43.1282617197662" lon="-2.4888271617968"><ele>664.500007518718</ele><time>2012-05-05T10:44:42Z</time><speed>1.3081882</speed></trkpt><trkpt lat="43.1283042792827" lon="-2.48887734186161"><ele>663.099998465084</ele><time>2012-05-05T10:44:47Z</time><speed>1.3024917</speed></trkpt><trkpt lat="43.1283446838952" lon="-2.48891771626902"><ele>662.899999517395</ele><time>2012-05-05T10:44:51Z</time><speed>1.3859512</speed></trkpt><trkpt lat="43.128369501779" lon="-2.48895304138204"><ele>662.700001861499</ele><time>2012-05-05T10:44:54Z</time><speed>1.3436571</speed></trkpt><trkpt lat="43.1284057727025" lon="-2.48900282004335"><ele>662.899998968351</ele><time>2012-05-05T10:44:58Z</time><speed>1.3923459</speed></trkpt><trkpt lat="43.1284424980737" lon="-2.48905066575867"><ele>665.800009475684</ele><time>2012-05-05T10:45:03Z</time><speed>1.2121422</speed></trkpt><trkpt lat="43.1284738936917" lon="-2.48910831000422"><ele>667.500007725138</ele><time>2012-05-05T10:45:09Z</time><speed>1.3431861</speed></trkpt><trkpt lat="43.1285082338498" lon="-2.48915101790122"><ele>669.399999390817</ele><time>2012-05-05T10:45:13Z</time><speed>1.3107034</speed></trkpt><trkpt lat="43.1285534314352" lon="-2.48916659369618"><ele>672.999997990985</ele><time>2012-05-05T10:45:17Z</time><speed>1.3384587</speed></trkpt><trkpt lat="43.1285957304883" lon="-2.48921108990149"><ele>672.400005797299</ele><time>2012-05-05T10:45:22Z</time><speed>1.3030807</speed></trkpt><trkpt lat="43.1286326617469" lon="-2.48925645021765"><ele>672.70001230321</ele><time>2012-05-05T10:45:27Z</time><speed>1.2304621</speed></trkpt><trkpt lat="43.1286577570541" lon="-2.48931767812003"><ele>672.200007518051</ele><time>2012-05-05T10:45:33Z</time><speed>1.5</speed></trkpt><trkpt lat="43.1286899338497" lon="-2.48937067335902"><ele>672.199993440329</ele><time>2012-05-05T10:45:37Z</time><speed>1.1587449</speed></trkpt><trkpt lat="43.1287286126498" lon="-2.48941409251239"><ele>670.19999830429</ele><time>2012-05-05T10:45:41Z</time><speed>1.3797857</speed></trkpt><trkpt lat="43.1287648041408" lon="-2.48945572376398"><ele>668.000004173056</ele><time>2012-05-05T10:45:45Z</time><speed>1.2290891</speed></trkpt><trkpt lat="43.1287950322824" lon="-2.489517486723"><ele>670.600010381146</ele><time>2012-05-05T10:45:50Z</time><speed>1.136527</speed></trkpt><trkpt lat="43.1288141286711" lon="-2.48957215128374"><ele>670.400000565694</ele><time>2012-05-05T10:45:54Z</time><speed>1.2023647</speed></trkpt><trkpt lat="43.1288415709967" lon="-2.48962640461065"><ele>672.300016528659</ele><time>2012-05-05T10:46:01Z</time><speed>0.993931</speed></trkpt><trkpt lat="43.1288971693768" lon="-2.48963861375961"><ele>672.199990361802</ele><time>2012-05-05T10:46:06Z</time><speed>1.3118331</speed></trkpt><trkpt lat="43.1289447070668" lon="-2.48967917048796"><ele>667.999976459043</ele><time>2012-05-05T10:46:10Z</time><speed>1.1362084</speed></trkpt><trkpt lat="43.128994295599" lon="-2.48972319579771"><ele>667.599967930667</ele><time>2012-05-05T10:46:14Z</time><speed>1.2259405</speed></trkpt><trkpt lat="43.1290441574914" lon="-2.48975269612028"><ele>671.599985465674</ele><time>2012-05-05T10:46:18Z</time><speed>1.1576254</speed></trkpt><trkpt lat="43.1290859457257" lon="-2.48978194503727"><ele>671.800001065268</ele><time>2012-05-05T10:46:22Z</time><speed>1.2843541</speed></trkpt><trkpt lat="43.1291149112348" lon="-2.48983730140912"><ele>672.300024066074</ele><time>2012-05-05T10:46:28Z</time><speed>1.1927443</speed></trkpt><trkpt lat="43.1291515710132" lon="-2.4898875217094"><ele>676.400019988442</ele><time>2012-05-05T10:46:35Z</time><speed>1.1811279</speed></trkpt><trkpt lat="43.1291894396494" lon="-2.48992753634338"><ele>675.899988767208</ele><time>2012-05-05T10:46:39Z</time><speed>1.1851578</speed></trkpt><trkpt lat="43.1292307005395" lon="-2.48997198538969"><ele>675.09999158403</ele><time>2012-05-05T10:46:43Z</time><speed>1.1955899</speed></trkpt><trkpt lat="43.1292664989848" lon="-2.49001149732217"><ele>675.100000583322</ele><time>2012-05-05T10:46:47Z</time><speed>1.1874225</speed></trkpt><trkpt lat="43.1293057645345" lon="-2.4900470577994"><ele>674.700025683475</ele><time>2012-05-05T10:46:52Z</time><speed>1.2792246</speed></trkpt><trkpt lat="43.1293225292142" lon="-2.49005189039941"><ele>674.700034775094</ele><time>2012-05-05T10:46:54Z</time><speed>1.2840445</speed></trkpt><trkpt lat="43.1293670316282" lon="-2.49006362771122"><ele>674.400022399009</ele><time>2012-05-05T10:46:59Z</time><speed>1.4153376</speed></trkpt><trkpt lat="43.1294203974236" lon="-2.4900746692342"><ele>675.299967004847</ele><time>2012-05-05T10:47:03Z</time><speed>1.3882085</speed></trkpt><trkpt lat="43.1294680931695" lon="-2.49007601207864"><ele>675.099958121595</ele><time>2012-05-05T10:47:06Z</time><speed>1.3210207</speed></trkpt><trkpt lat="43.129521111728" lon="-2.49007824531127"><ele>675.299971075083</ele><time>2012-05-05T10:47:10Z</time><speed>1.3290952</speed></trkpt><trkpt lat="43.1295667410641" lon="-2.49009413982261"><ele>673.999998066866</ele><time>2012-05-05T10:47:14Z</time><speed>1.4499407</speed></trkpt><trkpt lat="43.129611299841" lon="-2.49012981335416"><ele>672.500019114671</ele><time>2012-05-05T10:47:19Z</time><speed>1.3512467</speed></trkpt><trkpt lat="43.1296561646376" lon="-2.49015784446252"><ele>670.899988420492</ele><time>2012-05-05T10:47:23Z</time><speed>1.4328967</speed></trkpt><trkpt lat="43.1296987763739" lon="-2.49017811405071"><ele>669.799965595375</ele><time>2012-05-05T10:47:26Z</time><speed>1.4524707</speed></trkpt><trkpt lat="43.1297393686941" lon="-2.49020877138505"><ele>669.700040854729</ele><time>2012-05-05T10:47:31Z</time><speed>1.4065332</speed></trkpt><trkpt lat="43.1297821635875" lon="-2.49023465321704"><ele>670.599996899384</ele><time>2012-05-05T10:47:35Z</time><speed>1.3775789</speed></trkpt><trkpt lat="43.1298323415165" lon="-2.49027602627728"><ele>669.999992878234</ele><time>2012-05-05T10:47:39Z</time><speed>1.5733987</speed></trkpt><trkpt lat="43.129878337843" lon="-2.4903156790094"><ele>670.799957708616</ele><time>2012-05-05T10:47:43Z</time><speed>1.4111547</speed></trkpt><trkpt lat="43.1299218409541" lon="-2.49035961193405"><ele>669.000004214947</ele><time>2012-05-05T10:47:47Z</time><speed>1.540179</speed></trkpt><trkpt lat="43.1299583168435" lon="-2.49040272934416"><ele>667.699970574855</ele><time>2012-05-05T10:47:50Z</time><speed>1.4146585</speed></trkpt><trkpt lat="43.1300165330554" lon="-2.4904450853468"><ele>669.399931529421</ele><time>2012-05-05T10:47:53Z</time><speed>2.0</speed></trkpt><trkpt lat="43.1300369426042" lon="-2.49045614164227"><ele>669.499937765309</ele><time>2012-05-05T10:47:54Z</time><speed>1.7</speed></trkpt><trkpt lat="43.1300910567619" lon="-2.49047832940767"><ele>669.599955616839</ele><time>2012-05-05T10:47:57Z</time><speed>1.4729699</speed></trkpt><trkpt lat="43.1301341254197" lon="-2.49050355478113"><ele>669.400011576977</ele><time>2012-05-05T10:48:01Z</time><speed>1.3167962</speed></trkpt><trkpt lat="43.1301682871056" lon="-2.49054962640041"><ele>667.900038376057</ele><time>2012-05-05T10:48:07Z</time><speed>1.2600825</speed></trkpt><trkpt lat="43.1302003598602" lon="-2.49059885444983"><ele>666.300004443777</ele><time>2012-05-05T10:48:12Z</time><speed>1.3161377</speed></trkpt><trkpt lat="43.1302376713654" lon="-2.49063473259312"><ele>665.799999144191</ele><time>2012-05-05T10:48:16Z</time><speed>1.2708395</speed></trkpt><trkpt lat="43.1302768766366" lon="-2.4906835039267"><ele>667.500006767886</ele><time>2012-05-05T10:48:21Z</time><speed>1.2591345</speed></trkpt><trkpt lat="43.1303042049093" lon="-2.49074243886903"><ele>667.200031206292</ele><time>2012-05-05T10:48:26Z</time><speed>1.3285152</speed></trkpt><trkpt lat="43.1303308923071" lon="-2.49079509798569"><ele>668.700047415629</ele><time>2012-05-05T10:48:33Z</time><speed>1.2657856</speed></trkpt><trkpt lat="43.1303626953164" lon="-2.49084307790109"><ele>670.700027572801</ele><time>2012-05-05T10:48:39Z</time><speed>1.3560098</speed></trkpt><trkpt lat="43.1304079491005" lon="-2.49086857122823"><ele>672.700035866117</ele><time>2012-05-05T10:48:45Z</time><speed>1.3964219</speed></trkpt><trkpt lat="43.1304586567066" lon="-2.4908365413611"><ele>670.199991772768</ele><time>2012-05-05T10:48:50Z</time><speed>1.2763085</speed></trkpt><trkpt lat="43.1304947912407" lon="-2.49082385776072"><ele>669.199950799615</ele><time>2012-05-05T10:48:54Z</time><speed>0.95723146</speed></trkpt><trkpt lat="43.1305354109046" lon="-2.49086685994777"><ele>668.400096909426</ele><time>2012-05-05T10:49:00Z</time><speed>1.350548</speed></trkpt><trkpt lat="43.1305741573376" lon="-2.49092319338514"><ele>667.500025986877</ele><time>2012-05-05T10:49:08Z</time><speed>1.4608611</speed></trkpt><trkpt lat="43.1305791118351" lon="-2.49101468904881"><ele>667.099925810739</ele><time>2012-05-05T10:49:11Z</time><speed>1.4583895</speed></trkpt><trkpt lat="43.1305958247547" lon="-2.49109935865609"><ele>667.699911884096</ele><time>2012-05-05T10:49:14Z</time><speed>1.4501578</speed></trkpt><trkpt lat="43.1306125278947" lon="-2.49117253881436"><ele>667.299921120372</ele><time>2012-05-05T10:49:17Z</time><speed>1.3958771</speed></trkpt><trkpt lat="43.1306342848965" lon="-2.49124064730225"><ele>668.699914706428</ele><time>2012-05-05T10:49:20Z</time><speed>1.402263</speed></trkpt><trkpt lat="43.1306598477014" lon="-2.49130298620343"><ele>669.399972845958</ele><time>2012-05-05T10:49:23Z</time><speed>1.4039351</speed></trkpt><trkpt lat="43.1306601659726" lon="-2.4913664757703"><ele>667.80008715256</ele><time>2012-05-05T10:49:29Z</time><speed>1.0782782</speed></trkpt><trkpt lat="43.1306651283867" lon="-2.49143269059215"><ele>667.699995507992</ele><time>2012-05-05T10:49:35Z</time><speed>1.2481928</speed></trkpt><trkpt lat="43.1306807574428" lon="-2.49150504795636"><ele>664.59999161748</ele><time>2012-05-05T10:49:40Z</time><speed>1.3742251</speed></trkpt><trkpt lat="43.1306978458733" lon="-2.49156933172837"><ele>664.899990903392</ele><time>2012-05-05T10:49:44Z</time><speed>1.391225</speed></trkpt><trkpt lat="43.1307258917589" lon="-2.4916315612321"><ele>663.900010611326</ele><time>2012-05-05T10:49:49Z</time><speed>1.4027755</speed></trkpt><trkpt lat="43.1307532167012" lon="-2.49168160487675"><ele>663.099999760367</ele><time>2012-05-05T10:49:53Z</time><speed>1.2939379</speed></trkpt><trkpt lat="43.1307593497071" lon="-2.49169534550669"><ele>664.100002254535</ele><time>2012-05-05T10:49:54Z</time><speed>1.2739185</speed></trkpt><trkpt lat="43.1307785008009" lon="-2.49175737385151"><ele>659.800011206792</ele><time>2012-05-05T10:49:58Z</time><speed>1.3007654</speed></trkpt><trkpt lat="43.1308073886852" lon="-2.49181658623311"><ele>659.399978859737</ele><time>2012-05-05T10:50:02Z</time><speed>1.4162103</speed></trkpt><trkpt lat="43.130823670113" lon="-2.49188299884418"><ele>659.499992552237</ele><time>2012-05-05T10:50:05Z</time><speed>1.2857808</speed></trkpt><trkpt lat="43.1308272032036" lon="-2.49196117831297"><ele>661.000015228885</ele><time>2012-05-05T10:50:09Z</time><speed>1.2639918</speed></trkpt><trkpt lat="43.1308323830295" lon="-2.49202279436898"><ele>659.900096940431</ele><time>2012-05-05T10:50:14Z</time><speed>1.3586887</speed></trkpt><trkpt lat="43.130875106792" lon="-2.49207082489861"><ele>662.099992877807</ele><time>2012-05-05T10:50:20Z</time><speed>1.3351792</speed></trkpt><trkpt lat="43.1309012011057" lon="-2.49212328539578"><ele>659.40002380835</ele><time>2012-05-05T10:50:24Z</time><speed>1.3634553</speed></trkpt><trkpt lat="43.1309283052336" lon="-2.49217512469603"><ele>658.500075064617</ele><time>2012-05-05T10:50:28Z</time><speed>1.3487896</speed></trkpt><trkpt lat="43.1309391638816" lon="-2.49224494397959"><ele>656.000055199837</ele><time>2012-05-05T10:50:32Z</time><speed>1.2981273</speed></trkpt><trkpt lat="43.130940488022" lon="-2.49230976931853"><ele>656.900099745622</ele><time>2012-05-05T10:50:36Z</time><speed>1.1932237</speed></trkpt><trkpt lat="43.1309346634539" lon="-2.49237514698144"><ele>660.000030332374</ele><time>2012-05-05T10:50:48Z</time><speed>1.3017048</speed></trkpt><trkpt lat="43.1309407722261" lon="-2.49245133865697"><ele>662.39998939969</ele><time>2012-05-05T10:50:52Z</time><speed>1.2817845</speed></trkpt><trkpt lat="43.1309479721599" lon="-2.49248109224576"><ele>663.100013288301</ele><time>2012-05-05T10:50:54Z</time><speed>1.2098312</speed></trkpt><trkpt lat="43.1309629828766" lon="-2.49255073587442"><ele>662.099993811926</ele><time>2012-05-05T10:50:58Z</time><speed>1.342412</speed></trkpt><trkpt lat="43.1309759290785" lon="-2.49262208298788"><ele>661.699993729948</ele><time>2012-05-05T10:51:02Z</time><speed>1.2231926</speed></trkpt><trkpt lat="43.1309960856914" lon="-2.49269264935148"><ele>660.699931055353</ele><time>2012-05-05T10:51:06Z</time><speed>1.3110859</speed></trkpt><trkpt lat="43.1310083381823" lon="-2.49275470386018"><ele>660.599919650508</ele><time>2012-05-05T10:51:09Z</time><speed>1.3489876</speed></trkpt><trkpt lat="43.1310182189934" lon="-2.49282387574878"><ele>661.499890635675</ele><time>2012-05-05T10:51:12Z</time><speed>1.2861843</speed></trkpt><trkpt lat="43.1310432331863" lon="-2.49288180707217"><ele>661.399871456947</ele><time>2012-05-05T10:51:15Z</time><speed>1.3170933</speed></trkpt><trkpt lat="43.1310721975753" lon="-2.49295062208529"><ele>661.799914787937</ele><time>2012-05-05T10:51:19Z</time><speed>1.3074698</speed></trkpt><trkpt lat="43.1310959759293" lon="-2.49301630707204"><ele>661.200064110149</ele><time>2012-05-05T10:51:24Z</time><speed>1.375937</speed></trkpt><trkpt lat="43.1310885787808" lon="-2.49309109801471"><ele>662.200140754914</ele><time>2012-05-05T10:51:29Z</time><speed>1.3402882</speed></trkpt><trkpt lat="43.1310652967002" lon="-2.49315984902657"><ele>664.200136234006</ele><time>2012-05-05T10:51:33Z</time><speed>1.2875443</speed></trkpt><trkpt lat="43.131053294013" lon="-2.49323355051383"><ele>664.000067398376</ele><time>2012-05-05T10:51:37Z</time><speed>1.2901049</speed></trkpt><trkpt lat="43.1310344350115" lon="-2.49328999670507"><ele>664.500063522676</ele><time>2012-05-05T10:51:40Z</time><speed>1.3630093</speed></trkpt><trkpt lat="43.1310342029916" lon="-2.49335639134284"><ele>662.500022649198</ele><time>2012-05-05T10:51:44Z</time><speed>1.3995892</speed></trkpt><trkpt lat="43.1310606320191" lon="-2.4934201057505"><ele>660.100022454692</ele><time>2012-05-05T10:51:49Z</time><speed>1.3215569</speed></trkpt><trkpt lat="43.131094278254" lon="-2.49348057969365"><ele>660.300017250685</ele><time>2012-05-05T10:51:54Z</time><speed>1.3802978</speed></trkpt><trkpt lat="43.131112842222" lon="-2.49354678214627"><ele>662.700011892394</ele><time>2012-05-05T10:51:58Z</time><speed>1.461725</speed></trkpt><trkpt lat="43.1311390823157" lon="-2.49359974591986"><ele>659.600009551266</ele><time>2012-05-05T10:52:02Z</time><speed>1.3384683</speed></trkpt><trkpt lat="43.1311791001698" lon="-2.49363033885202"><ele>656.099992980869</ele><time>2012-05-05T10:52:06Z</time><speed>1.4174742</speed></trkpt><trkpt lat="43.1312100347788" lon="-2.49367568054091"><ele>657.300074952556</ele><time>2012-05-05T10:52:10Z</time><speed>1.3845863</speed></trkpt><trkpt lat="43.1312046766722" lon="-2.49375920369979"><ele>660.500115890236</ele><time>2012-05-05T10:52:14Z</time><speed>1.6175574</speed></trkpt><trkpt lat="43.1311970779104" lon="-2.49383280400096"><ele>661.600023384601</ele><time>2012-05-05T10:52:17Z</time><speed>1.4552377</speed></trkpt><trkpt lat="43.1312016451177" lon="-2.49389737414232"><ele>658.800013045817</ele><time>2012-05-05T10:52:20Z</time><speed>1.4732013</speed></trkpt><trkpt lat="43.1312120892874" lon="-2.49396166232862"><ele>660.0999678035</ele><time>2012-05-05T10:52:23Z</time><speed>1.4562137</speed></trkpt><trkpt lat="43.131223842924" lon="-2.49402636181915"><ele>661.599973819587</ele><time>2012-05-05T10:52:26Z</time><speed>1.4733332</speed></trkpt><trkpt lat="43.1312453670468" lon="-2.49409356841309"><ele>662.000018479857</ele><time>2012-05-05T10:52:30Z</time><speed>1.3916211</speed></trkpt><trkpt lat="43.1312601678535" lon="-2.4941559347445"><ele>662.000067721993</ele><time>2012-05-05T10:52:34Z</time><speed>1.4482723</speed></trkpt><trkpt lat="43.1312745178981" lon="-2.49421545578319"><ele>659.900068847147</ele><time>2012-05-05T10:52:38Z</time><speed>1.4617195</speed></trkpt><trkpt lat="43.1312855735284" lon="-2.49427546729752"><ele>657.600023198512</ele><time>2012-05-05T10:52:42Z</time><speed>1.4544467</speed></trkpt><trkpt lat="43.1313189711387" lon="-2.49432895378667"><ele>653.30005045229</ele><time>2012-05-05T10:52:47Z</time><speed>1.4090742</speed></trkpt><trkpt lat="43.1313663844013" lon="-2.49433129198204"><ele>647.600091684443</ele><time>2012-05-05T10:52:54Z</time><speed>1.1957393</speed></trkpt><trkpt lat="43.1314159982379" lon="-2.4943195642281"><ele>647.000141888472</ele><time>2012-05-05T10:53:00Z</time><speed>1.5663438</speed></trkpt><trkpt lat="43.1314584471243" lon="-2.49429243156424"><ele>646.700219494234</ele><time>2012-05-05T10:53:06Z</time><speed>1.493508</speed></trkpt><trkpt lat="43.1315011792987" lon="-2.4942700853474"><ele>645.800295209591</ele><time>2012-05-05T10:53:11Z</time><speed>1.4038727</speed></trkpt><trkpt lat="43.1315415966958" lon="-2.49421896574388"><ele>645.800088783136</ele><time>2012-05-05T10:53:14Z</time><speed>1.553668</speed></trkpt><trkpt lat="43.131587547437" lon="-2.49418427055584"><ele>644.600000782286</ele><time>2012-05-05T10:53:18Z</time><speed>1.345876</speed></trkpt><trkpt lat="43.1316315846398" lon="-2.49415167265248"><ele>643.69999198046</ele><time>2012-05-05T10:53:22Z</time><speed>1.3280047</speed></trkpt><trkpt lat="43.1316680974438" lon="-2.49409835411197"><ele>643.499904409996</ele><time>2012-05-05T10:53:26Z</time><speed>1.2760451</speed></trkpt><trkpt lat="43.1317190173726" lon="-2.4940570786928"><ele>644.399888784194</ele><time>2012-05-05T10:53:30Z</time><speed>1.3426291</speed></trkpt><trkpt lat="43.1317650563509" lon="-2.49402685892978"><ele>644.499821290935</ele><time>2012-05-05T10:53:33Z</time><speed>1.3461691</speed></trkpt><trkpt lat="43.1318050859944" lon="-2.49398838021433"><ele>644.699937198793</ele><time>2012-05-05T10:53:36Z</time><speed>1.4594855</speed></trkpt><trkpt lat="43.1318450935248" lon="-2.49393520980448"><ele>644.399961953186</ele><time>2012-05-05T10:53:40Z</time><speed>1.3915315</speed></trkpt><trkpt lat="43.1318854441621" lon="-2.49390546809894"><ele>643.299922259462</ele><time>2012-05-05T10:53:45Z</time><speed>1.4469774</speed></trkpt><trkpt lat="43.1319404883523" lon="-2.49388769759879"><ele>641.899903029312</ele><time>2012-05-05T10:53:50Z</time><speed>1.4102687</speed></trkpt><trkpt lat="43.1319838789129" lon="-2.49386632124768"><ele>640.200059151257</ele><time>2012-05-05T10:53:54Z</time><speed>1.3444382</speed></trkpt><trkpt lat="43.1319946928426" lon="-2.49380295131729"><ele>640.800068313729</ele><time>2012-05-05T10:53:59Z</time><speed>1.3638388</speed></trkpt><trkpt lat="43.1319767546436" lon="-2.49374190882432"><ele>640.500030904666</ele><time>2012-05-05T10:54:03Z</time><speed>1.2851472</speed></trkpt><trkpt lat="43.1319539114682" lon="-2.49367588905126"><ele>639.10000080905</ele><time>2012-05-05T10:54:07Z</time><speed>1.6100099</speed></trkpt><trkpt lat="43.1319502507524" lon="-2.49360897760437"><ele>639.599944116138</ele><time>2012-05-05T10:54:12Z</time><speed>1.4851971</speed></trkpt><trkpt lat="43.1319725815692" lon="-2.49353976516436"><ele>639.599873325325</ele><time>2012-05-05T10:54:17Z</time><speed>2.3</speed></trkpt><trkpt lat="43.1320319019144" lon="-2.49349568560007"><ele>639.699768452905</ele><time>2012-05-05T10:54:20Z</time><speed>2.2</speed></trkpt><trkpt lat="43.1320747712604" lon="-2.49347316413429"><ele>639.499812876532</ele><time>2012-05-05T10:54:22Z</time><speed>1.5610113</speed></trkpt><trkpt lat="43.1321257810771" lon="-2.49346169980768"><ele>639.499872078916</ele><time>2012-05-05T10:54:25Z</time><speed>1.5289441</speed></trkpt><trkpt lat="43.1321369695811" lon="-2.49340044917811"><ele>630.699961891908</ele><time>2012-05-05T10:54:32Z</time><speed>1.42824</speed></trkpt><trkpt lat="43.1321579283574" lon="-2.49334105627236"><ele>624.900003385036</ele><time>2012-05-05T10:54:41Z</time><speed>1.4917932</speed></trkpt><trkpt lat="43.1321455718644" lon="-2.49327705829172"><ele>625.199952070753</ele><time>2012-05-05T10:54:46Z</time><speed>1.5315433</speed></trkpt><trkpt lat="43.1321597440257" lon="-2.49321821550367"><ele>624.999933520504</ele><time>2012-05-05T10:54:49Z</time><speed>1.4129157</speed></trkpt><trkpt lat="43.1321898651951" lon="-2.49316657309794"><ele>622.399953192758</ele><time>2012-05-05T10:54:53Z</time><speed>1.5970101</speed></trkpt><trkpt lat="43.1322011648952" lon="-2.49316375654936"><ele>621.599988791306</ele><time>2012-05-05T10:54:54Z</time><speed>1.5183121</speed></trkpt><trkpt lat="43.1322470108391" lon="-2.49316351537438"><ele>618.700113336839</ele><time>2012-05-05T10:54:59Z</time><speed>1.4542208</speed></trkpt><trkpt lat="43.1322754812444" lon="-2.49310381606546"><ele>615.299978462893</ele><time>2012-05-05T10:55:08Z</time><speed>1.4835976</speed></trkpt><trkpt lat="43.1322878282572" lon="-2.49304006385243"><ele>612.499985835541</ele><time>2012-05-05T10:55:13Z</time><speed>1.439783</speed></trkpt><trkpt lat="43.1323015914294" lon="-2.49296890180689"><ele>612.799983090143</ele><time>2012-05-05T10:55:18Z</time><speed>1.4293303</speed></trkpt><trkpt lat="43.1323434305439" lon="-2.49292185621607"><ele>611.099929504437</ele><time>2012-05-05T10:55:23Z</time><speed>1.5289</speed></trkpt><trkpt lat="43.1323838294487" lon="-2.49287857503923"><ele>608.300038028659</ele><time>2012-05-05T10:55:29Z</time><speed>1.4370496</speed></trkpt><trkpt lat="43.1324083171138" lon="-2.4928250212123"><ele>608.299985764158</ele><time>2012-05-05T10:55:34Z</time><speed>1.4994649</speed></trkpt><trkpt lat="43.132431172512" lon="-2.49276797938508"><ele>606.500058182828</ele><time>2012-05-05T10:55:42Z</time><speed>1.5370435</speed></trkpt><trkpt lat="43.1324566990493" lon="-2.49270575010997"><ele>604.699932106056</ele><time>2012-05-05T10:55:49Z</time><speed>1.4094537</speed></trkpt><trkpt lat="43.1324512654937" lon="-2.49263345605632"><ele>604.100066329622</ele><time>2012-05-05T10:55:54Z</time><speed>1.329616</speed></trkpt><trkpt lat="43.1324221655587" lon="-2.49257406063487"><ele>604.000134116376</ele><time>2012-05-05T10:55:59Z</time><speed>1.6</speed></trkpt><trkpt lat="43.1324044658474" lon="-2.49250882227185"><ele>604.099984669026</ele><time>2012-05-05T10:56:07Z</time><speed>1.3656446</speed></trkpt><trkpt lat="43.1323882110717" lon="-2.4924496435961"><ele>602.199989276568</ele><time>2012-05-05T10:56:11Z</time><speed>1.4340361</speed></trkpt><trkpt lat="43.1323769679829" lon="-2.4923783009429"><ele>603.100090125121</ele><time>2012-05-05T10:56:16Z</time><speed>1.3134209</speed></trkpt><trkpt lat="43.1323543493131" lon="-2.49230718139571"><ele>599.400048461306</ele><time>2012-05-05T10:56:21Z</time><speed>1.3697581</speed></trkpt><trkpt lat="43.1323292020857" lon="-2.492238819106"><ele>599.500034636259</ele><time>2012-05-05T10:56:25Z</time><speed>1.4015503</speed></trkpt><trkpt lat="43.1323148160289" lon="-2.4921687640586"><ele>600.599989266332</ele><time>2012-05-05T10:56:30Z</time><speed>1.4363898</speed></trkpt><trkpt lat="43.1323097295636" lon="-2.49209353471738"><ele>599.900008123791</ele><time>2012-05-05T10:56:33Z</time><speed>1.4128988</speed></trkpt><trkpt lat="43.132310711078" lon="-2.4920297058038"><ele>596.999977937908</ele><time>2012-05-05T10:56:37Z</time><speed>1.3836893</speed></trkpt><trkpt lat="43.1323008407672" lon="-2.49196883966199"><ele>595.499991423376</ele><time>2012-05-05T10:56:43Z</time><speed>1.3216836</speed></trkpt><trkpt lat="43.1322597241534" lon="-2.49193443139232"><ele>589.40001277423</ele><time>2012-05-05T10:56:49Z</time><speed>1.4366624</speed></trkpt><trkpt lat="43.1322304061749" lon="-2.49189367329766"><ele>590.300003363814</ele><time>2012-05-05T10:56:53Z</time><speed>1.4020313</speed></trkpt><trkpt lat="43.1322173411527" lon="-2.49182688610955"><ele>591.199984353366</ele><time>2012-05-05T10:56:57Z</time><speed>1.3863348</speed></trkpt><trkpt lat="43.1322093834279" lon="-2.49174822139844"><ele>592.699999106652</ele><time>2012-05-05T10:57:01Z</time><speed>1.4507965</speed></trkpt><trkpt lat="43.1322007428214" lon="-2.4916784299336"><ele>591.2999693106</ele><time>2012-05-05T10:57:05Z</time><speed>1.4706591</speed></trkpt><trkpt lat="43.1322056176516" lon="-2.49160859833057"><ele>591.499913562878</ele><time>2012-05-05T10:57:10Z</time><speed>1.4376066</speed></trkpt><trkpt lat="43.1322347537887" lon="-2.49153987991536"><ele>591.299964331877</ele><time>2012-05-05T10:57:14Z</time><speed>1.5481898</speed></trkpt><trkpt lat="43.1322669162786" lon="-2.49147889277262"><ele>590.900011323452</ele><time>2012-05-05T10:57:18Z</time><speed>1.428692</speed></trkpt><trkpt lat="43.1322929889626" lon="-2.4914140197535"><ele>592.199977958317</ele><time>2012-05-05T10:57:22Z</time><speed>1.5454612</speed></trkpt><trkpt lat="43.1323264953024" lon="-2.49135382146856"><ele>592.699975709941</ele><time>2012-05-05T10:57:26Z</time><speed>1.5160613</speed></trkpt><trkpt lat="43.1323663770096" lon="-2.49129574641525"><ele>592.89993645322</ele><time>2012-05-05T10:57:30Z</time><speed>1.505451</speed></trkpt><trkpt lat="43.132403120081" lon="-2.49124735343242"><ele>592.699927741669</ele><time>2012-05-05T10:57:33Z</time><speed>1.5713251</speed></trkpt><trkpt lat="43.1324452440247" lon="-2.49119817466373"><ele>592.699909633973</ele><time>2012-05-05T10:57:36Z</time><speed>1.6225977</speed></trkpt><trkpt lat="43.1324747575545" lon="-2.49114631686281"><ele>591.999937725466</ele><time>2012-05-05T10:57:39Z</time><speed>1.5677328</speed></trkpt><trkpt lat="43.1325110944543" lon="-2.49109547504362"><ele>591.999963017654</ele><time>2012-05-05T10:57:43Z</time><speed>1.490223</speed></trkpt><trkpt lat="43.1325472936251" lon="-2.49105328088455"><ele>592.099954509171</ele><time>2012-05-05T10:57:47Z</time><speed>1.5177509</speed></trkpt><trkpt lat="43.1325870331629" lon="-2.49101907173617"><ele>592.29999989934</ele><time>2012-05-05T10:57:51Z</time><speed>1.5836773</speed></trkpt><trkpt lat="43.1326072517808" lon="-2.49099999983845"><ele>590.699981558853</ele><time>2012-05-05T10:57:53Z</time><speed>1.502344</speed></trkpt><trkpt lat="43.1326437179549" lon="-2.49095907156625"><ele>587.399983911402</ele><time>2012-05-05T10:57:57Z</time><speed>1.4855454</speed></trkpt><trkpt lat="43.1326536050879" lon="-2.4908933745219"><ele>582.000062593273</ele><time>2012-05-05T10:58:03Z</time><speed>1.6250007</speed></trkpt><trkpt lat="43.13264384591" lon="-2.49082854387978"><ele>580.600059048488</ele><time>2012-05-05T10:58:08Z</time><speed>1.4701947</speed></trkpt><trkpt lat="43.1326610656101" lon="-2.49075605278856"><ele>579.300023942427</ele><time>2012-05-05T10:58:13Z</time><speed>1.4083008</speed></trkpt><trkpt lat="43.13265120346" lon="-2.49068846120245"><ele>577.500005323406</ele><time>2012-05-05T10:58:17Z</time><speed>1.5014144</speed></trkpt><trkpt lat="43.1326488189957" lon="-2.49062391705916"><ele>575.199991675227</ele><time>2012-05-05T10:58:21Z</time><speed>1.617682</speed></trkpt><trkpt lat="43.1326578656283" lon="-2.4905609983623"><ele>577.299987164323</ele><time>2012-05-05T10:58:24Z</time><speed>1.8126112</speed></trkpt><trkpt lat="43.132678076903" lon="-2.49048795426328"><ele>577.299983217384</ele><time>2012-05-05T10:58:28Z</time><speed>2.1321385</speed></trkpt><trkpt lat="43.1327287197247" lon="-2.49048249274555"><ele>575.200029951064</ele><time>2012-05-05T10:58:32Z</time><speed>1.6753047</speed></trkpt><trkpt lat="43.1327742454164" lon="-2.49047303461961"><ele>575.800015027526</ele><time>2012-05-05T10:58:36Z</time><speed>1.5433301</speed></trkpt><trkpt lat="43.1328179241589" lon="-2.4904473769274"><ele>575.999931744549</ele><time>2012-05-05T10:58:39Z</time><speed>1.8734974</speed></trkpt><trkpt lat="43.1328763282298" lon="-2.49043563891388"><ele>574.399981508982</ele><time>2012-05-05T10:58:42Z</time><speed>1.7053167</speed></trkpt><trkpt lat="43.132922692933" lon="-2.49042980882075"><ele>574.100224050091</ele><time>2012-05-05T10:58:47Z</time><speed>1.5945253</speed></trkpt><trkpt lat="43.132954975858" lon="-2.4903677947301"><ele>572.400095197481</ele><time>2012-05-05T10:58:51Z</time><speed>1.9</speed></trkpt><trkpt lat="43.1329789537405" lon="-2.49033631612916"><ele>572.300030002948</ele><time>2012-05-05T10:58:53Z</time><speed>1.7</speed></trkpt><trkpt lat="43.1330123734093" lon="-2.49028580129316"><ele>573.100059796607</ele><time>2012-05-05T10:58:56Z</time><speed>1.4585927</speed></trkpt><trkpt lat="43.1330444716151" lon="-2.49023781226406"><ele>572.400125343734</ele><time>2012-05-05T10:58:59Z</time><speed>1.6599746</speed></trkpt><trkpt lat="43.1330853207151" lon="-2.49018262975871"><ele>570.600049734293</ele><time>2012-05-05T10:59:03Z</time><speed>1.6213195</speed></trkpt><trkpt lat="43.1331267998753" lon="-2.49012772107604"><ele>569.000063043501</ele><time>2012-05-05T10:59:07Z</time><speed>1.5828243</speed></trkpt><trkpt lat="43.133166000385" lon="-2.49009435341995"><ele>567.000160976532</ele><time>2012-05-05T10:59:14Z</time><speed>1.508507</speed></trkpt><trkpt lat="43.1332184770008" lon="-2.49005113537747"><ele>565.600132537462</ele><time>2012-05-05T10:59:19Z</time><speed>2.2</speed></trkpt><trkpt lat="43.133254177021" lon="-2.48999327571885"><ele>565.000083895583</ele><time>2012-05-05T10:59:22Z</time><speed>1.8</speed></trkpt><trkpt lat="43.1332905724031" lon="-2.48994864709044"><ele>566.00003087189</ele><time>2012-05-05T10:59:25Z</time><speed>1.5353494</speed></trkpt><trkpt lat="43.1333104159691" lon="-2.48988060981511"><ele>566.900048737533</ele><time>2012-05-05T10:59:28Z</time><speed>1.4834207</speed></trkpt><trkpt lat="43.1333152670184" lon="-2.48981738376537"><ele>565.900081855675</ele><time>2012-05-05T10:59:31Z</time><speed>1.4174029</speed></trkpt><trkpt lat="43.1333071818577" lon="-2.4897442126724"><ele>565.700095588349</ele><time>2012-05-05T10:59:35Z</time><speed>1.4507891</speed></trkpt><trkpt lat="43.1333144868436" lon="-2.48968131567515"><ele>561.900059770953</ele><time>2012-05-05T10:59:41Z</time><speed>1.6346118</speed></trkpt><trkpt lat="43.1333388830891" lon="-2.4896932327084"><ele>560.100335933936</ele><time>2012-05-05T10:59:53Z</time><speed>0.64709496</speed></trkpt><trkpt lat="43.133387820153" lon="-2.48965619482494"><ele>559.400014985563</ele><time>2012-05-05T11:00:49Z</time><speed>1.4836277</speed></trkpt><trkpt lat="43.13339397433" lon="-2.48963493054303"><ele>556.700157122978</ele><time>2012-05-05T11:00:53Z</time><speed>1.3833458</speed></trkpt><trkpt lat="43.1333747897622" lon="-2.48956520757223"><ele>550.699999043626</ele><time>2012-05-05T11:00:57Z</time><speed>1.4285209</speed></trkpt><trkpt lat="43.1333413724919" lon="-2.48952182345858"><ele>545.899966923405</ele><time>2012-05-05T11:01:04Z</time><speed>1.2136146</speed></trkpt><trkpt lat="43.1333013021318" lon="-2.48948401811678"><ele>548.39999440384</ele><time>2012-05-05T11:01:11Z</time><speed>0.87472296</speed></trkpt><trkpt lat="43.1332926840925" lon="-2.48941146252537"><ele>552.100080630464</ele><time>2012-05-05T11:01:15Z</time><speed>0.7718444</speed></trkpt><trkpt lat="43.13329421828" lon="-2.48938961673973"><ele>551.900102329838</ele><time>2012-05-05T11:01:53Z</time><speed>0.0</speed></trkpt><trkpt lat="43.1333442360195" lon="-2.48940082467403"><ele>551.60001491635</ele><time>2012-05-05T11:04:36Z</time><speed>1.3807518</speed></trkpt><trkpt lat="43.1333806210322" lon="-2.48943888985101"><ele>548.300020561351</ele><time>2012-05-05T11:04:41Z</time><speed>1.3839868</speed></trkpt><trkpt lat="43.1334061264809" lon="-2.48949602402497"><ele>550.500005944517</ele><time>2012-05-05T11:04:46Z</time><speed>1.1497142</speed></trkpt><trkpt lat="43.1334220658049" lon="-2.48955539251902"><ele>549.500040522946</ele><time>2012-05-05T11:04:51Z</time><speed>1.1456643</speed></trkpt><trkpt lat="43.1334270666569" lon="-2.48958123783618"><ele>550.600028576126</ele><time>2012-05-05T11:04:53Z</time><speed>1.1796715</speed></trkpt><trkpt lat="43.133446539683" lon="-2.48964160655509"><ele>551.000017375384</ele><time>2012-05-05T11:04:58Z</time><speed>1.2037286</speed></trkpt><trkpt lat="43.1334715418215" lon="-2.48969838108392"><ele>555.100065072689</ele><time>2012-05-05T11:05:04Z</time><speed>1.1130948</speed></trkpt><trkpt lat="43.1335018906491" lon="-2.4897437625383"><ele>556.00003534414</ele><time>2012-05-05T11:05:10Z</time><speed>1.2503448</speed></trkpt><trkpt lat="43.1335262609717" lon="-2.48979888907788"><ele>555.199985634913</ele><time>2012-05-05T11:05:14Z</time><speed>1.1898079</speed></trkpt><trkpt lat="43.1335421781435" lon="-2.48987701728743"><ele>551.899956068696</ele><time>2012-05-05T11:05:18Z</time><speed>1.1425172</speed></trkpt><trkpt lat="43.1335635567536" lon="-2.48994622143205"><ele>547.999996450127</ele><time>2012-05-05T11:05:22Z</time><speed>1.175686</speed></trkpt><trkpt lat="43.1335880796348" lon="-2.49001146304658"><ele>548.199991086657</ele><time>2012-05-05T11:05:26Z</time><speed>1.8</speed></trkpt><trkpt lat="43.1336163844459" lon="-2.49007881407138"><ele>548.300025502523</ele><time>2012-05-05T11:05:30Z</time><speed>1.6</speed></trkpt><trkpt lat="43.1336258215045" lon="-2.49014810977981"><ele>549.800121606078</ele><time>2012-05-05T11:05:34Z</time><speed>1.3029714</speed></trkpt><trkpt lat="43.1336215438295" lon="-2.4902175110201"><ele>551.500103958015</ele><time>2012-05-05T11:05:40Z</time><speed>1.2753026</speed></trkpt><trkpt lat="43.1336249574271" lon="-2.49028366547793"><ele>551.700083033177</ele><time>2012-05-05T11:05:45Z</time><speed>1.1603112</speed></trkpt><trkpt lat="43.1336574539751" lon="-2.49034262133681"><ele>551.100032850187</ele><time>2012-05-05T11:05:51Z</time><speed>1.2169718</speed></trkpt><trkpt lat="43.133669607864" lon="-2.49036642805759"><ele>552.500062979949</ele><time>2012-05-05T11:05:53Z</time><speed>1.1760931</speed></trkpt><trkpt lat="43.1336830565407" lon="-2.4904389610975"><ele>554.100113371966</ele><time>2012-05-05T11:05:59Z</time><speed>1.3346393</speed></trkpt><trkpt lat="43.1336923945821" lon="-2.49051078788844"><ele>554.000060250414</ele><time>2012-05-05T11:06:04Z</time><speed>1.2838919</speed></trkpt><trkpt lat="43.1337025136044" lon="-2.49057610256361"><ele>553.499996762997</ele><time>2012-05-05T11:06:08Z</time><speed>1.1802534</speed></trkpt><trkpt lat="43.1337267553341" lon="-2.49063517008437"><ele>552.399928807019</ele><time>2012-05-05T11:06:13Z</time><speed>1.1317654</speed></trkpt><trkpt lat="43.1337709024774" lon="-2.49064768621538"><ele>552.100175727457</ele><time>2012-05-05T11:06:25Z</time><speed>1.4262648</speed></trkpt><trkpt lat="43.1337572634781" lon="-2.49072543811772"><ele>552.000122054603</ele><time>2012-05-05T11:06:31Z</time><speed>1.472028</speed></trkpt><trkpt lat="43.13374463253" lon="-2.49080504477012"><ele>551.300024198356</ele><time>2012-05-05T11:06:34Z</time><speed>1.4274381</speed></trkpt><trkpt lat="43.1337449968169" lon="-2.49087322618179"><ele>551.399969140252</ele><time>2012-05-05T11:06:37Z</time><speed>1.3874307</speed></trkpt><trkpt lat="43.1337555879478" lon="-2.49094616005111"><ele>549.100024649121</ele><time>2012-05-05T11:06:41Z</time><speed>1.4259135</speed></trkpt><trkpt lat="43.1337465966935" lon="-2.49102252249041"><ele>547.89999590655</ele><time>2012-05-05T11:06:45Z</time><speed>1.3590798</speed></trkpt><trkpt lat="43.1337847683051" lon="-2.49102258404515"><ele>546.300151720042</ele><time>2012-05-05T11:06:54Z</time><speed>0.0</speed></trkpt><trkpt lat="43.1337862162766" lon="-2.49102266971633"><ele>545.900104642736</ele><time>2012-05-05T11:07:54Z</time><speed>0.0</speed></trkpt><trkpt lat="43.1338251431044" lon="-2.49098786687625"><ele>545.50013498843</ele><time>2012-05-05T11:09:38Z</time><speed>1.4410741</speed></trkpt><trkpt lat="43.1338279443508" lon="-2.49105374772912"><ele>544.900152162601</ele><time>2012-05-05T11:09:46Z</time><speed>1.3623028</speed></trkpt><trkpt lat="43.1338370122391" lon="-2.49112673946679"><ele>546.500056631806</ele><time>2012-05-05T11:09:50Z</time><speed>1.3185805</speed></trkpt><trkpt lat="43.1338680003324" lon="-2.49117584915215"><ele>544.900003809596</ele><time>2012-05-05T11:09:54Z</time><speed>1.244331</speed></trkpt><trkpt lat="43.133911778325" lon="-2.49122083084009"><ele>543.599999248246</ele><time>2012-05-05T11:09:59Z</time><speed>1.0919212</speed></trkpt><trkpt lat="43.1339545790734" lon="-2.49125979998708"><ele>545.700034236444</ele><time>2012-05-05T11:10:04Z</time><speed>1.3732747</speed></trkpt><trkpt lat="43.1339979002007" lon="-2.4912412520191"><ele>545.800062889065</ele><time>2012-05-05T11:10:18Z</time><speed>1.0139186</speed></trkpt><trkpt lat="43.1340365027413" lon="-2.49120439661133"><ele>546.800133960397</ele><time>2012-05-05T11:10:27Z</time><speed>1.1221627</speed></trkpt><trkpt lat="43.1340429925422" lon="-2.49120853635577"><ele>545.900018032551</ele><time>2012-05-05T11:10:54Z</time><speed>0.0</speed></trkpt><trkpt lat="43.1340027795656" lon="-2.49123757030229"><ele>549.200208678992</ele><time>2012-05-05T11:12:38Z</time><speed>1.1249406</speed></trkpt><trkpt lat="43.1339674086179" lon="-2.49127643672888"><ele>548.600021040738</ele><time>2012-05-05T11:12:46Z</time><speed>1.2935207</speed></trkpt><trkpt lat="43.133970546909" lon="-2.49126737926037"><ele>548.900118072632</ele><time>2012-05-05T11:12:54Z</time><speed>0.0</speed></trkpt><trkpt lat="43.1339249226908" lon="-2.49127646504866"><ele>549.100102602595</ele><time>2012-05-05T11:13:35Z</time><speed>1.1266198</speed></trkpt><trkpt lat="43.133877692385" lon="-2.49128034139073"><ele>551.100031325732</ele><time>2012-05-05T11:13:39Z</time><speed>1.2442877</speed></trkpt><trkpt lat="43.1338282112885" lon="-2.4912783310726"><ele>548.700005574451</ele><time>2012-05-05T11:13:43Z</time><speed>1.3362626</speed></trkpt><trkpt lat="43.1337770601601" lon="-2.49126931027569"><ele>544.299906995188</ele><time>2012-05-05T11:13:48Z</time><speed>1.4337759</speed></trkpt><trkpt lat="43.1337551002367" lon="-2.49124246320615"><ele>539.599941347049</ele><time>2012-05-05T11:13:54Z</time><speed>1.3608195</speed></trkpt><trkpt lat="43.1337462680561" lon="-2.49117996931652"><ele>540.60001822937</ele><time>2012-05-05T11:13:58Z</time><speed>1.3722168</speed></trkpt><trkpt lat="43.1337434186269" lon="-2.49110693486445"><ele>541.800024273795</ele><time>2012-05-05T11:14:02Z</time><speed>1.3787482</speed></trkpt><trkpt lat="43.1337527158538" lon="-2.49102990811333"><ele>540.199985759604</ele><time>2012-05-05T11:14:06Z</time><speed>1.3605664</speed></trkpt><trkpt lat="43.1337578251403" lon="-2.49095866398825"><ele>540.599986271286</ele><time>2012-05-05T11:14:10Z</time><speed>1.3217907</speed></trkpt><trkpt lat="43.1337618543657" lon="-2.49088478799527"><ele>541.00000387329</ele><time>2012-05-05T11:14:14Z</time><speed>1.3143848</speed></trkpt><trkpt lat="43.1337706939359" lon="-2.49081993786793"><ele>540.599998721107</ele><time>2012-05-05T11:14:18Z</time><speed>1.3616825</speed></trkpt><trkpt lat="43.1337786234339" lon="-2.49075824363258"><ele>541.499984152866</ele><time>2012-05-05T11:14:22Z</time><speed>1.3885527</speed></trkpt><trkpt lat="43.1337829763709" lon="-2.49068980576481"><ele>541.899986220293</ele><time>2012-05-05T11:14:26Z</time><speed>1.3676698</speed></trkpt><trkpt lat="43.1337886336615" lon="-2.49061876107774"><ele>542.999995226839</ele><time>2012-05-05T11:14:30Z</time><speed>1.3424451</speed></trkpt><trkpt lat="43.13379174504" lon="-2.49054993183255"><ele>544.000010086468</ele><time>2012-05-05T11:14:34Z</time><speed>1.3708708</speed></trkpt><trkpt lat="43.1337851963735" lon="-2.4904819924055"><ele>542.099990556393</ele><time>2012-05-05T11:14:39Z</time><speed>1.3210764</speed></trkpt><trkpt lat="43.1337870610748" lon="-2.49042019447919"><ele>542.699958873272</ele><time>2012-05-05T11:14:43Z</time><speed>1.4013903</speed></trkpt><trkpt lat="43.1338019188601" lon="-2.49035140907798"><ele>543.400001703009</ele><time>2012-05-05T11:14:47Z</time><speed>1.4065205</speed></trkpt><trkpt lat="43.1338215951994" lon="-2.49028427688637"><ele>544.199981921071</ele><time>2012-05-05T11:14:51Z</time><speed>1.4031326</speed></trkpt><trkpt lat="43.1338345027722" lon="-2.4902378379262"><ele>544.699976420163</ele><time>2012-05-05T11:14:54Z</time><speed>1.3884728</speed></trkpt><trkpt lat="43.1338510999594" lon="-2.49017543455324"><ele>544.199978190654</ele><time>2012-05-05T11:14:58Z</time><speed>1.4328595</speed></trkpt><trkpt lat="43.1338756974293" lon="-2.49010940706199"><ele>544.099933084675</ele><time>2012-05-05T11:15:02Z</time><speed>1.3853345</speed></trkpt><trkpt lat="43.133897800713" lon="-2.49005451855384"><ele>543.699976532468</ele><time>2012-05-05T11:15:05Z</time><speed>1.4769154</speed></trkpt><trkpt lat="43.133915834799" lon="-2.48998451206723"><ele>543.900039207343</ele><time>2012-05-05T11:15:09Z</time><speed>1.427816</speed></trkpt><trkpt lat="43.1339356255378" lon="-2.48991946475275"><ele>543.200054870763</ele><time>2012-05-05T11:15:14Z</time><speed>1.4494087</speed></trkpt><trkpt lat="43.1339574813295" lon="-2.48985827328333"><ele>542.400031767663</ele><time>2012-05-05T11:15:19Z</time><speed>1.4550146</speed></trkpt><trkpt lat="43.133974376887" lon="-2.48979452455696"><ele>542.700005321844</ele><time>2012-05-05T11:15:23Z</time><speed>1.4488044</speed></trkpt><trkpt lat="43.1340010947529" lon="-2.48973061055946"><ele>543.000000185734</ele><time>2012-05-05T11:15:27Z</time><speed>1.4191707</speed></trkpt><trkpt lat="43.134020642576" lon="-2.4896705184109"><ele>542.499990872038</ele><time>2012-05-05T11:15:31Z</time><speed>1.4346484</speed></trkpt><trkpt lat="43.1340337638249" lon="-2.48961029315402"><ele>541.400006076103</ele><time>2012-05-05T11:15:35Z</time><speed>1.438946</speed></trkpt><trkpt lat="43.1340298451654" lon="-2.48954548278343"><ele>541.70001274045</ele><time>2012-05-05T11:15:39Z</time><speed>1.4442195</speed></trkpt><trkpt lat="43.1340169957806" lon="-2.48948185981007"><ele>541.800017468044</ele><time>2012-05-05T11:15:43Z</time><speed>1.4669604</speed></trkpt><trkpt lat="43.134011373286" lon="-2.48941947806403"><ele>541.899996296915</ele><time>2012-05-05T11:15:47Z</time><speed>1.4276234</speed></trkpt><trkpt lat="43.1340273565144" lon="-2.48934998563566"><ele>539.099990344499</ele><time>2012-05-05T11:15:52Z</time><speed>1.3723643</speed></trkpt><trkpt lat="43.1340391351509" lon="-2.4893275465028"><ele>538.499996654671</ele><time>2012-05-05T11:15:54Z</time><speed>1.3739579</speed></trkpt><trkpt lat="43.134080411882" lon="-2.48927480301588"><ele>538.799994767294</ele><time>2012-05-05T11:15:59Z</time><speed>1.4323918</speed></trkpt><trkpt lat="43.134128240833" lon="-2.48925305699296"><ele>535.300058291897</ele><time>2012-05-05T11:16:04Z</time><speed>1.5034951</speed></trkpt><trkpt lat="43.1341772689506" lon="-2.48926339739168"><ele>535.100030439077</ele><time>2012-05-05T11:16:12Z</time><speed>1.4011152</speed></trkpt><trkpt lat="43.1342291144674" lon="-2.48924565864416"><ele>532.100032172009</ele><time>2012-05-05T11:16:17Z</time><speed>1.4424045</speed></trkpt><trkpt lat="43.1342734464621" lon="-2.4892287400142"><ele>531.200022333504</ele><time>2012-05-05T11:16:21Z</time><speed>1.4701232</speed></trkpt><trkpt lat="43.1343177515999" lon="-2.48919446649869"><ele>531.000014848163</ele><time>2012-05-05T11:16:25Z</time><speed>1.372817</speed></trkpt><trkpt lat="43.1343604807579" lon="-2.4891598342825"><ele>530.300024744502</ele><time>2012-05-05T11:16:29Z</time><speed>1.517374</speed></trkpt><trkpt lat="43.1344071626602" lon="-2.48912396625332"><ele>530.000048330509</ele><time>2012-05-05T11:16:34Z</time><speed>1.4637457</speed></trkpt><trkpt lat="43.1344520473016" lon="-2.48910824601138"><ele>530.400067781304</ele><time>2012-05-05T11:16:39Z</time><speed>1.4709648</speed></trkpt><trkpt lat="43.1345004684082" lon="-2.4890850641883"><ele>530.199890175346</ele><time>2012-05-05T11:16:43Z</time><speed>1.4728348</speed></trkpt><trkpt lat="43.1345443888702" lon="-2.48904125547652"><ele>529.099849807373</ele><time>2012-05-05T11:16:47Z</time><speed>1.4724059</speed></trkpt><trkpt lat="43.1345840175769" lon="-2.48899985564984"><ele>526.899861022798</ele><time>2012-05-05T11:16:51Z</time><speed>1.466004</speed></trkpt><trkpt lat="43.1346173922633" lon="-2.48897529934715"><ele>526.299845668014</ele><time>2012-05-05T11:16:54Z</time><speed>1.4540449</speed></trkpt><trkpt lat="43.1346810994251" lon="-2.48895397668936"><ele>527.299753437853</ele><time>2012-05-05T11:16:58Z</time><speed>1.7</speed></trkpt><trkpt lat="43.1347261599621" lon="-2.48895311416248"><ele>527.299773587885</ele><time>2012-05-05T11:17:00Z</time><speed>1.5004773</speed></trkpt><trkpt lat="43.1347864576881" lon="-2.48894630569814"><ele>525.19980616749</ele><time>2012-05-05T11:17:03Z</time><speed>1.5009576</speed></trkpt><trkpt lat="43.1348339873327" lon="-2.48893061695976"><ele>523.899914029065</ele><time>2012-05-05T11:17:06Z</time><speed>1.4438591</speed></trkpt><trkpt lat="43.1348863376678" lon="-2.48889449892411"><ele>521.299918178015</ele><time>2012-05-05T11:17:10Z</time><speed>1.5036817</speed></trkpt><trkpt lat="43.134931162612" lon="-2.48884621313638"><ele>519.800001988667</ele><time>2012-05-05T11:17:14Z</time><speed>1.558542</speed></trkpt><trkpt lat="43.1349632361823" lon="-2.48879312581164"><ele>520.900008934706</ele><time>2012-05-05T11:17:18Z</time><speed>1.4514481</speed></trkpt><trkpt lat="43.1350070412204" lon="-2.48876323526844"><ele>521.699932911344</ele><time>2012-05-05T11:17:22Z</time><speed>1.3836712</speed></trkpt><trkpt lat="43.1350571276448" lon="-2.48876152471501"><ele>521.800035157148</ele><time>2012-05-05T11:17:26Z</time><speed>1.4737027</speed></trkpt><trkpt lat="43.1351002390595" lon="-2.48878298552462"><ele>523.800554315588</ele><time>2012-05-05T11:17:36Z</time><speed>1.5064429</speed></trkpt><trkpt lat="43.1351489311448" lon="-2.48875986752297"><ele>522.800124342582</ele><time>2012-05-05T11:17:45Z</time><speed>1.4544358</speed></trkpt><trkpt lat="43.1351958569806" lon="-2.48875556204258"><ele>523.600743724216</ele><time>2012-05-05T11:17:50Z</time><speed>1.4527301</speed></trkpt><trkpt lat="43.1352172586904" lon="-2.488741292888"><ele>523.700866014883</ele><time>2012-05-05T11:17:54Z</time><speed>1.4458567</speed></trkpt><trkpt lat="43.1352631247437" lon="-2.4886985904172"><ele>522.800351698207</ele><time>2012-05-05T11:17:59Z</time><speed>1.4687275</speed></trkpt><trkpt lat="43.1353095542436" lon="-2.48867527885803"><ele>522.500749568803</ele><time>2012-05-05T11:18:04Z</time><speed>1.3685144</speed></trkpt><trkpt lat="43.1353508116838" lon="-2.48862075661543"><ele>522.800129697288</ele><time>2012-05-05T11:18:08Z</time><speed>1.7</speed></trkpt><trkpt lat="43.1353945151183" lon="-2.48858209209134"><ele>522.199773696172</ele><time>2012-05-05T11:18:11Z</time><speed>1.6</speed></trkpt><trkpt lat="43.1354411922118" lon="-2.48852851149415"><ele>521.999570163325</ele><time>2012-05-05T11:18:14Z</time><speed>1.6</speed></trkpt><trkpt lat="43.1354704246183" lon="-2.48848176187241"><ele>521.49967999871</ele><time>2012-05-05T11:18:16Z</time><speed>1.5361149</speed></trkpt><trkpt lat="43.1355206259707" lon="-2.48842119500836"><ele>521.799720015424</ele><time>2012-05-05T11:18:19Z</time><speed>1.4098237</speed></trkpt><trkpt lat="43.1355636634986" lon="-2.48837273167137"><ele>521.299770328962</ele><time>2012-05-05T11:18:22Z</time><speed>1.4488848</speed></trkpt><trkpt lat="43.1356022236159" lon="-2.48833961125827"><ele>520.899792101028</ele><time>2012-05-05T11:18:25Z</time><speed>1.4877249</speed></trkpt><trkpt lat="43.1356501083538" lon="-2.48830562990877"><ele>520.799928518993</ele><time>2012-05-05T11:18:29Z</time><speed>1.3884362</speed></trkpt><trkpt lat="43.135693635085" lon="-2.4882745088178"><ele>521.000234140605</ele><time>2012-05-05T11:18:33Z</time><speed>1.4524277</speed></trkpt><trkpt lat="43.1357374731643" lon="-2.48825760891552"><ele>521.200522922323</ele><time>2012-05-05T11:18:37Z</time><speed>1.2950834</speed></trkpt><trkpt lat="43.1357816680367" lon="-2.48824369381761"><ele>521.500364895455</ele><time>2012-05-05T11:18:41Z</time><speed>1.3744516</speed></trkpt><trkpt lat="43.1358373931483" lon="-2.48824691200978"><ele>521.399573211824</ele><time>2012-05-05T11:18:45Z</time><speed>1.8</speed></trkpt><trkpt lat="43.1358921325641" lon="-2.48824765215971"><ele>521.6995691067</ele><time>2012-05-05T11:18:49Z</time><speed>1.4396976</speed></trkpt><trkpt lat="43.1359436410323" lon="-2.48823790087561"><ele>521.799735802381</ele><time>2012-05-05T11:18:53Z</time><speed>1.3946086</speed></trkpt><trkpt lat="43.1359570174975" lon="-2.48823521356409"><ele>522.099785500636</ele><time>2012-05-05T11:18:54Z</time><speed>1.6</speed></trkpt><trkpt lat="43.1360020102024" lon="-2.48822609249096"><ele>521.99983909562</ele><time>2012-05-05T11:18:57Z</time><speed>1.3916603</speed></trkpt><trkpt lat="43.1360557232063" lon="-2.48821590912174"><ele>522.399856493554</ele><time>2012-05-05T11:19:01Z</time><speed>1.4148555</speed></trkpt><trkpt lat="43.1361004437747" lon="-2.48819706898071"><ele>521.199381272392</ele><time>2012-05-05T11:19:04Z</time><speed>1.4186018</speed></trkpt><trkpt lat="43.1361556325271" lon="-2.48817460880242"><ele>520.399688957764</ele><time>2012-05-05T11:19:08Z</time><speed>1.4940506</speed></trkpt><trkpt lat="43.1361955628775" lon="-2.48814572475212"><ele>520.699760400761</ele><time>2012-05-05T11:19:11Z</time><speed>1.4591215</speed></trkpt><trkpt lat="43.1362337140773" lon="-2.48810984224173"><ele>520.39990509154</ele><time>2012-05-05T11:19:14Z</time><speed>1.4447423</speed></trkpt><trkpt lat="43.1362717995225" lon="-2.4880575178657"><ele>519.401212310805</ele><time>2012-05-05T11:19:18Z</time><speed>1.429228</speed></trkpt><trkpt lat="43.136275802416" lon="-2.4879909333301"><ele>519.801196321444</ele><time>2012-05-05T11:19:21Z</time><speed>1.3876345</speed></trkpt><trkpt lat="43.1362533436958" lon="-2.48792525528812"><ele>521.500519261037</ele><time>2012-05-05T11:19:23Z</time><speed>1.4281509</speed></trkpt><trkpt lat="43.1362447304201" lon="-2.48785891439276"><ele>520.499882277404</ele><time>2012-05-05T11:19:26Z</time><speed>1.4172107</speed></trkpt><trkpt lat="43.1363039685136" lon="-2.48783819983848"><ele>523.59966639858</ele><time>2012-05-05T11:19:30Z</time><speed>1.3802656</speed></trkpt><trkpt lat="43.1363502389416" lon="-2.48784365973691"><ele>526.099771870936</ele><time>2012-05-05T11:19:32Z</time><speed>1.4564449</speed></trkpt><trkpt lat="43.1364164188454" lon="-2.48783367756495"><ele>530.999697672992</ele><time>2012-05-05T11:19:35Z</time><speed>1.3857255</speed></trkpt><trkpt lat="43.1364861897893" lon="-2.48780344818758"><ele>526.399393512261</ele><time>2012-05-05T11:19:38Z</time><speed>2.8000002</speed></trkpt><trkpt lat="43.1365619291211" lon="-2.487760810754"><ele>524.699111829744</ele><time>2012-05-05T11:19:40Z</time><speed>4.0</speed></trkpt><trkpt lat="43.1366335174718" lon="-2.48772624972182"><ele>524.099321483267</ele><time>2012-05-05T11:19:42Z</time><speed>2.5</speed></trkpt><trkpt lat="43.1366886286296" lon="-2.48770002695616"><ele>524.899546650103</ele><time>2012-05-05T11:19:44Z</time><speed>2.0</speed></trkpt><trkpt lat="43.1367300433757" lon="-2.48766553068133"><ele>524.199801358266</ele><time>2012-05-05T11:19:47Z</time><speed>1.362142</speed></trkpt><trkpt lat="43.1367452038778" lon="-2.48760149965497"><ele>524.300575752099</ele><time>2012-05-05T11:19:52Z</time><speed>1.1641608</speed></trkpt><trkpt lat="43.136728353383" lon="-2.48757424420251"><ele>519.200890469368</ele><time>2012-05-05T11:19:54Z</time><speed>1.3992288</speed></trkpt><trkpt lat="43.136686329145" lon="-2.48753527298074"><ele>517.600615406705</ele><time>2012-05-05T11:19:57Z</time><speed>1.3405151</speed></trkpt><trkpt lat="43.1366566085393" lon="-2.4874624739122"><ele>517.500269615208</ele><time>2012-05-05T11:20:01Z</time><speed>1.3673347</speed></trkpt><trkpt lat="43.1366438314073" lon="-2.48740282246135"><ele>515.100112185973</ele><time>2012-05-05T11:20:04Z</time><speed>1.3622537</speed></trkpt><trkpt lat="43.1366282646149" lon="-2.48734066609173"><ele>513.600063890062</ele><time>2012-05-05T11:20:08Z</time><speed>1.3122607</speed></trkpt><trkpt lat="43.1366377611454" lon="-2.48726459243665"><ele>508.700040786686</ele><time>2012-05-05T11:20:13Z</time><speed>1.3648273</speed></trkpt><trkpt lat="43.1366711138233" lon="-2.48722191907717"><ele>507.500673085891</ele><time>2012-05-05T11:20:24Z</time><speed>1.3588856</speed></trkpt><trkpt lat="43.1366758544626" lon="-2.48714547327548"><ele>505.400294634983</ele><time>2012-05-05T11:20:38Z</time><speed>1.2371461</speed></trkpt><trkpt lat="43.1366709468388" lon="-2.48706938788086"><ele>505.900053660883</ele><time>2012-05-05T11:20:40Z</time><speed>1.3752261</speed></trkpt><trkpt lat="43.136671850553" lon="-2.48699261378117"><ele>505.699998026633</ele><time>2012-05-05T11:20:42Z</time><speed>1.3381829</speed></trkpt><trkpt lat="43.13667693782" lon="-2.48690617699779"><ele>505.699984741944</ele><time>2012-05-05T11:20:45Z</time><speed>1.3481017</speed></trkpt><trkpt lat="43.1366817175652" lon="-2.48683212621606"><ele>505.200000976362</ele><time>2012-05-05T11:20:48Z</time><speed>1.3946875</speed></trkpt><trkpt lat="43.1366883993914" lon="-2.48676662078798"><ele>505.60000555014</ele><time>2012-05-05T11:20:51Z</time><speed>1.4283093</speed></trkpt><trkpt lat="43.1366929360312" lon="-2.48670842877919"><ele>508.49997998825</ele><time>2012-05-05T11:20:54Z</time><speed>1.3654519</speed></trkpt><trkpt lat="43.1367108491459" lon="-2.48664095225"><ele>508.300125267298</ele><time>2012-05-05T11:21:01Z</time><speed>1.3696076</speed></trkpt><trkpt lat="43.1367289089344" lon="-2.48657271348681"><ele>505.300000462662</ele><time>2012-05-05T11:21:06Z</time><speed>1.3823452</speed></trkpt><trkpt lat="43.1367619863623" lon="-2.48651481081851"><ele>504.100043730097</ele><time>2012-05-05T11:21:11Z</time><speed>1.3560183</speed></trkpt><trkpt lat="43.136791319672" lon="-2.48644769322668"><ele>504.500018976508</ele><time>2012-05-05T11:21:16Z</time><speed>1.364829</speed></trkpt><trkpt lat="43.1368139389832" lon="-2.48639167065208"><ele>503.999995280658</ele><time>2012-05-05T11:21:20Z</time><speed>1.2382493</speed></trkpt><trkpt lat="43.1368428414841" lon="-2.4863367741116"><ele>503.899991079912</ele><time>2012-05-05T11:21:24Z</time><speed>1.3404055</speed></trkpt><trkpt lat="43.1368748627772" lon="-2.48627286919247"><ele>504.299968583768</ele><time>2012-05-05T11:21:28Z</time><speed>1.4136763</speed></trkpt></trkseg></trk></gpx>